Observation data for Persimmon Gap on 05/14/2018      Previous  Date  Next       Current Mesonet Observations  Soil Data  Daily Summary Page  Observations in Plain Language
KPG1 140500Z 01012KT 26/11 A2995 RMK A01 T02570109  RH  039%=      5-min Rain = 0
KPG1 140501Z 01010KT 26/11 A2995 RMK A01 T02570110  RH  040%=      5-min Rain = 0
KPG1 140502Z 01010KT 26/11 A2995 RMK A01 T02560110  RH  040%=      5-min Rain = 0
KPG1 140503Z 01010KT 26/11 A2995 RMK A01 T02560110  RH  040%=      5-min Rain = 0
KPG1 140504Z 01011KT 26/11 A2995 RMK A01 T02560109  RH  040%=      5-min Rain = 0
KPG1 140505Z 01011KT 26/11 A2995 RMK A01 T02560110  RH  040%=      5-min Rain = 0
KPG1 140506Z 01011KT 26/11 A2995 RMK A01 T02560110  RH  040%=      5-min Rain = 0
KPG1 140507Z 01011KT 26/11 A2995 RMK A01 T02560111  RH  040%=      5-min Rain = 0
KPG1 140508Z 01010KT 26/11 A2995 RMK A01 T02550111  RH  040%=      5-min Rain = 0
KPG1 140509Z 01010KT 26/11 A2995 RMK A01 T02550111  RH  040%=      5-min Rain = 0
KPG1 140510Z 00012KT 26/11 A2995 RMK A01 T02550112  RH  041%=      5-min Rain = 0
KPG1 140511Z 36010KT 26/11 A2995 RMK A01 T02550112  RH  041%=      5-min Rain = 0
KPG1 140512Z 01011KT 26/11 A2995 RMK A01 T02550113  RH  041%=      5-min Rain = 0
KPG1 140513Z 01009KT 26/11 A2995 RMK A01 T02550112  RH  041%=      5-min Rain = 0
KPG1 140514Z 01010KT 25/11 A2995 RMK A01 T02540113  RH  041%=      5-min Rain = 0
KPG1 140515Z 01008KT 26/11 A2995 RMK A01 T02550113  RH  041%=      5-min Rain = 0
KPG1 140516Z 01007KT 26/11 A2995 RMK A01 T02550114  RH  041%=      5-min Rain = 0
KPG1 140517Z 01009KT 25/11 A2995 RMK A01 T02540113  RH  041%=      5-min Rain = 0
KPG1 140518Z 02007KT 26/11 A2995 RMK A01 T02550114  RH  041%=      5-min Rain = 0
KPG1 140519Z 03008KT 25/11 A2994 RMK A01 T02540113  RH  041%=      5-min Rain = 0
KPG1 140520Z 02008KT 25/11 A2995 RMK A01 T02530113  RH  041%=      5-min Rain = 0
KPG1 140521Z 02008KT 25/11 A2995 RMK A01 T02540114  RH  041%=      5-min Rain = 0
KPG1 140522Z 03008KT 25/11 A2995 RMK A01 T02540114  RH  042%=      5-min Rain = 0
KPG1 140523Z 01008KT 25/11 A2995 RMK A01 T02540114  RH  042%=      5-min Rain = 0
KPG1 140524Z 02007KT 25/11 A2995 RMK A01 T02540113  RH  041%=      5-min Rain = 0
KPG1 140525Z 02008KT 25/11 A2995 RMK A01 T02540113  RH  041%=      5-min Rain = 0
KPG1 140526Z 01009KT 25/11 A2995 RMK A01 T02530113  RH  042%=      5-min Rain = 0
KPG1 140527Z 02010KT 25/11 A2995 RMK A01 T02530114  RH  042%=      5-min Rain = 0
KPG1 140528Z 02009KT 25/11 A2995 RMK A01 T02540114  RH  041%=      5-min Rain = 0
KPG1 140529Z 02011KT 25/11 A2995 RMK A01 T02540113  RH  041%=      5-min Rain = 0
KPG1 140530Z 02011KT 25/11 A2995 RMK A01 T02540114  RH  041%=      5-min Rain = 0
KPG1 140531Z 02010KT 26/11 A2995 RMK A01 T02550114  RH  041%=      5-min Rain = 0
KPG1 140532Z 03008KT 26/11 A2995 RMK A01 T02550114  RH  041%=      5-min Rain = 0
KPG1 140533Z 03009KT 25/11 A2995 RMK A01 T02540113  RH  041%=      5-min Rain = 0
KPG1 140534Z 02010KT 25/11 A2995 RMK A01 T02530112  RH  041%=      5-min Rain = 0
KPG1 140535Z 02010KT 25/11 A2995 RMK A01 T02520113  RH  042%=      5-min Rain = 0
KPG1 140536Z 02009KT 25/11 A2995 RMK A01 T02530113  RH  042%=      5-min Rain = 0
KPG1 140537Z 03007KT 25/11 A2995 RMK A01 T02530113  RH  042%=      5-min Rain = 0
KPG1 140538Z 05006KT 25/11 A2995 RMK A01 T02530113  RH  041%=      5-min Rain = 0
KPG1 140539Z 06006KT 25/11 A2995 RMK A01 T02520113  RH  042%=      5-min Rain = 0
KPG1 140540Z 07008KT 25/11 A2995 RMK A01 T02520113  RH  042%=      5-min Rain = 0
KPG1 140541Z 05009KT 25/11 A2995 RMK A01 T02520114  RH  042%=      5-min Rain = 0
KPG1 140542Z 05010KT 25/11 A2995 RMK A01 T02520114  RH  042%=      5-min Rain = 0
KPG1 140543Z 05009KT 25/11 A2995 RMK A01 T02520114  RH  042%=      5-min Rain = 0
KPG1 140544Z 06008KT 25/11 A2995 RMK A01 T02520114  RH  042%=      5-min Rain = 0
KPG1 140545Z 07009KT 25/12 A2995 RMK A01 T02530115  RH  042%=      5-min Rain = 0
KPG1 140546Z 07007KT 25/12 A2995 RMK A01 T02530115  RH  042%=      5-min Rain = 0
KPG1 140547Z 07007KT 25/12 A2995 RMK A01 T02530115  RH  042%=      5-min Rain = 0
KPG1 140548Z 07008KT 25/12 A2995 RMK A01 T02530115  RH  042%=      5-min Rain = 0
KPG1 140549Z 06007KT 25/12 A2995 RMK A01 T02530116  RH  042%=      5-min Rain = 0
KPG1 140550Z 03009KT 25/12 A2995 RMK A01 T02530116  RH  042%=      5-min Rain = 0
KPG1 140551Z 04009KT 25/12 A2995 RMK A01 T02530116  RH  042%=      5-min Rain = 0
KPG1 140552Z 04009KT 25/12 A2995 RMK A01 T02530116  RH  042%=      5-min Rain = 0
KPG1 140553Z 05008KT 25/12 A2995 RMK A01 T02530117  RH  043%=      5-min Rain = 0
KPG1 140554Z 06007KT 25/12 A2995 RMK A01 T02530117  RH  043%=      5-min Rain = 0
KPG1 140555Z 04007KT 25/12 A2995 RMK A01 T02530117  RH  043%=      5-min Rain = 0
KPG1 140556Z 04008KT 25/12 A2995 RMK A01 T02530117  RH  043%=      5-min Rain = 0
KPG1 140557Z 06007KT 25/12 A2995 RMK A01 T02520117  RH  043%=      5-min Rain = 0
KPG1 140558Z 07007KT 25/12 A2995 RMK A01 T02520118  RH  043%=      5-min Rain = 0
KPG1 140559Z 06006KT 25/12 A2995 RMK A01 T02520117  RH  043%=      5-min Rain = 0
KPG1 140600Z 07008KT 25/12 A2995 RMK A01 T02520118  RH  043%=      5-min Rain = 0
KPG1 140601Z 06005KT 25/13 A2995 RMK A01 T02530127  RH  045%=      5-min Rain = 0
KPG1 140602Z 03007KT 26/12 A2995 RMK A01 T02550119  RH  043%=      5-min Rain = 0
KPG1 140603Z 05006KT 26/12 A2995 RMK A01 T02550118  RH  042%=      5-min Rain = 0
KPG1 140604Z 08005KT 25/12 A2995 RMK A01 T02540118  RH  043%=      5-min Rain = 0
KPG1 140605Z 10007KT 25/12 A2995 RMK A01 T02540122  RH  044%=      5-min Rain = 0
KPG1 140606Z 07006KT 25/13 A2994 RMK A01 T02540127  RH  045%=      5-min Rain = 0
KPG1 140607Z 07007KT 26/12 A2994 RMK A01 T02550124  RH  044%=      5-min Rain = 0
KPG1 140608Z 05006KT 26/13 A2994 RMK A01 T02560125  RH  044%=      5-min Rain = 0
KPG1 140609Z 06006KT 26/12 A2995 RMK A01 T02560121  RH  043%=      5-min Rain = 0
KPG1 140610Z 05009KT 26/12 A2995 RMK A01 T02550119  RH  043%=      5-min Rain = 0
KPG1 140611Z 06005KT 25/12 A2994 RMK A01 T02540118  RH  043%=      5-min Rain = 0
KPG1 140612Z 04005KT 25/12 A2994 RMK A01 T02540118  RH  043%=      5-min Rain = 0
KPG1 140613Z 09006KT 25/12 A2994 RMK A01 T02530121  RH  044%=      5-min Rain = 0
KPG1 140614Z 07005KT 25/13 A2994 RMK A01 T02540125  RH  045%=      5-min Rain = 0
KPG1 140615Z 06006KT 26/12 A2994 RMK A01 T02550123  RH  044%=      5-min Rain = 0
KPG1 140616Z 08005KT 26/12 A2994 RMK A01 T02550123  RH  044%=      5-min Rain = 0
KPG1 140617Z 10005KT 26/13 A2994 RMK A01 T02550127  RH  045%=      5-min Rain = 0
KPG1 140618Z 08005KT 26/13 A2994 RMK A01 T02550128  RH  045%=      5-min Rain = 0
KPG1 140619Z 07007KT 26/12 A2994 RMK A01 T02560124  RH  044%=      5-min Rain = 0
KPG1 140620Z 03007KT 26/12 A2994 RMK A01 T02560122  RH  043%=      5-min Rain = 0
KPG1 140621Z 07007KT 26/12 A2994 RMK A01 T02550119  RH  043%=      5-min Rain = 0
KPG1 140622Z 09007KT 25/12 A2994 RMK A01 T02530119  RH  043%=      5-min Rain = 0
KPG1 140623Z 07008KT 25/12 A2994 RMK A01 T02530119  RH  043%=      5-min Rain = 0
KPG1 140624Z 05007KT 25/12 A2994 RMK A01 T02530119  RH  043%=      5-min Rain = 0
KPG1 140625Z 05008KT 25/12 A2994 RMK A01 T02530119  RH  043%=      5-min Rain = 0
KPG1 140626Z 04006KT 25/12 A2994 RMK A01 T02530118  RH  043%=      5-min Rain = 0
KPG1 140627Z 04008KT 25/12 A2994 RMK A01 T02520119  RH  043%=      5-min Rain = 0
KPG1 140628Z 05007KT 25/12 A2994 RMK A01 T02520118  RH  043%=      5-min Rain = 0
KPG1 140629Z 05008KT 25/12 A2994 RMK A01 T02520121  RH  044%=      5-min Rain = 0
KPG1 140630Z 04008KT 25/12 A2994 RMK A01 T02520121  RH  044%=      5-min Rain = 0
KPG1 140631Z 04008KT 25/12 A2995 RMK A01 T02530121  RH  044%=      5-min Rain = 0
KPG1 140632Z 05006KT 25/12 A2995 RMK A01 T02530121  RH  044%=      5-min Rain = 0
KPG1 140633Z 05006KT 25/12 A2995 RMK A01 T02530122  RH  044%=      5-min Rain = 0
KPG1 140634Z 06006KT 25/12 A2995 RMK A01 T02520121  RH  044%=      5-min Rain = 0
KPG1 140635Z 04006KT 25/13 A2994 RMK A01 T02530127  RH  046%=      5-min Rain = 0
KPG1 140636Z 05004KT 25/13 A2994 RMK A01 T02540127  RH  045%=      5-min Rain = 0
KPG1 140637Z 07004KT 25/13 A2994 RMK A01 T02540128  RH  045%=      5-min Rain = 0
KPG1 140638Z 06004KT 25/13 A2994 RMK A01 T02540127  RH  045%=      5-min Rain = 0
KPG1 140639Z 06005KT 25/13 A2994 RMK A01 T02540129  RH  046%=      5-min Rain = 0
KPG1 140640Z 07005KT 25/13 A2994 RMK A01 T02540130  RH  046%=      5-min Rain = 0
KPG1 140641Z 08005KT 25/14 A2994 RMK A01 T02540136  RH  048%=      5-min Rain = 0
KPG1 140642Z 10005KT 26/14 A2994 RMK A01 T02560141  RH  049%=      5-min Rain = 0
KPG1 140643Z 08005KT 26/14 A2994 RMK A01 T02570140  RH  048%=      5-min Rain = 0
KPG1 140644Z 09008KT 26/14 A2994 RMK A01 T02580141  RH  048%=      5-min Rain = 0
KPG1 140645Z 09006KT 26/15 A2994 RMK A01 T02600146  RH  049%=      5-min Rain = 0
KPG1 140646Z 11006KT 26/15 A2994 RMK A01 T02620145  RH  049%=      5-min Rain = 0
KPG1 140647Z 11008KT 26/15 A2994 RMK A01 T02610147  RH  049%=      5-min Rain = 0
KPG1 140648Z 09006KT 26/15 A2994 RMK A01 T02620147  RH  049%=      5-min Rain = 0
KPG1 140649Z 11007KT 26/15 A2994 RMK A01 T02620145  RH  048%=      5-min Rain = 0
KPG1 140650Z 12010KT 26/15 A2994 RMK A01 T02620147  RH  049%=      5-min Rain = 0
KPG1 140651Z 14010KT 26/15 A2994 RMK A01 T02620148  RH  049%=      5-min Rain = 0
KPG1 140652Z 12007KT 26/15 A2994 RMK A01 T02630148  RH  049%=      5-min Rain = 0
KPG1 140653Z 12006KT 26/15 A2994 RMK A01 T02640148  RH  049%=      5-min Rain = 0
KPG1 140654Z 12007KT 26/15 A2994 RMK A01 T02640148  RH  049%=      5-min Rain = 0
KPG1 140655Z 14009KT 26/15 A2994 RMK A01 T02630148  RH  049%=      5-min Rain = 0
KPG1 140656Z 14009KT 26/15 A2994 RMK A01 T02630149  RH  049%=      5-min Rain = 0
KPG1 140657Z 12007KT 26/15 A2994 RMK A01 T02630148  RH  049%=      5-min Rain = 0
KPG1 140658Z 12011KT 26/15 A2994 RMK A01 T02630148  RH  049%=      5-min Rain = 0
KPG1 140659Z 13009KT 26/15 A2994 RMK A01 T02630148  RH  049%=      5-min Rain = 0
KPG1 140700Z 12009KT 26/15 A2994 RMK A01 T02630148  RH  049%=      5-min Rain = 0
KPG1 140701Z 13009KT 26/15 A2994 RMK A01 T02630148  RH  049%=      5-min Rain = 0
KPG1 140702Z 15009KT 26/15 A2994 RMK A01 T02630149  RH  049%=      5-min Rain = 0
KPG1 140703Z 14009KT 26/15 A2994 RMK A01 T02630149  RH  049%=      5-min Rain = 0
KPG1 140704Z 14007KT 26/15 A2994 RMK A01 T02630150  RH  050%=      5-min Rain = 0
KPG1 140705Z 15006KT 26/15 A2994 RMK A01 T02630150  RH  050%=      5-min Rain = 0
KPG1 140706Z 15005KT 26/15 A2994 RMK A01 T02620149  RH  050%=      5-min Rain = 0
KPG1 140707Z 15008KT 26/15 A2994 RMK A01 T02620149  RH  050%=      5-min Rain = 0
KPG1 140708Z 15007KT 26/15 A2994 RMK A01 T02610149  RH  050%=      5-min Rain = 0
KPG1 140709Z 15006KT 26/15 A2994 RMK A01 T02610150  RH  050%=      5-min Rain = 0
KPG1 140710Z 14006KT 26/15 A2994 RMK A01 T02610149  RH  050%=      5-min Rain = 0
KPG1 140711Z 14007KT 26/15 A2994 RMK A01 T02600149  RH  050%=      5-min Rain = 0
KPG1 140712Z 15006KT 26/15 A2994 RMK A01 T02600149  RH  050%=      5-min Rain = 0
KPG1 140713Z 15004KT 26/15 A2994 RMK A01 T02600149  RH  051%=      5-min Rain = 0
KPG1 140714Z 14005KT 26/15 A2994 RMK A01 T02590149  RH  051%=      5-min Rain = 0
KPG1 140715Z 15005KT 26/15 A2994 RMK A01 T02580150  RH  051%=      5-min Rain = 0
KPG1 140716Z 15007KT 26/15 A2994 RMK A01 T02580151  RH  051%=      5-min Rain = 0
KPG1 140717Z 15007KT 26/15 A2994 RMK A01 T02580152  RH  052%=      5-min Rain = 0
KPG1 140718Z 15006KT 26/15 A2994 RMK A01 T02580152  RH  052%=      5-min Rain = 0
KPG1 140719Z 15005KT 26/15 A2994 RMK A01 T02580152  RH  052%=      5-min Rain = 0
KPG1 140720Z 15006KT 26/15 A2994 RMK A01 T02580152  RH  052%=      5-min Rain = 0
KPG1 140721Z 16008KT 26/15 A2994 RMK A01 T02570153  RH  052%=      5-min Rain = 0
KPG1 140722Z 16008KT 26/15 A2994 RMK A01 T02570153  RH  053%=      5-min Rain = 0
KPG1 140723Z 15009KT 26/15 A2994 RMK A01 T02570154  RH  053%=      5-min Rain = 0
KPG1 140724Z 16009KT 26/15 A2994 RMK A01 T02570154  RH  053%=      5-min Rain = 0
KPG1 140725Z 16009KT 26/16 A2994 RMK A01 T02570155  RH  053%=      5-min Rain = 0
KPG1 140726Z 17009KT 26/16 A2994 RMK A01 T02570155  RH  053%=      5-min Rain = 0
KPG1 140727Z 17008KT 26/16 A2994 RMK A01 T02570155  RH  053%=      5-min Rain = 0
KPG1 140728Z 16009KT 26/16 A2994 RMK A01 T02570156  RH  054%=      5-min Rain = 0
KPG1 140729Z 17008KT 26/16 A2993 RMK A01 T02560156  RH  054%=      5-min Rain = 0
KPG1 140730Z 17010KT 26/16 A2993 RMK A01 T02560156  RH  054%=      5-min Rain = 0
KPG1 140731Z 17010KT 26/16 A2993 RMK A01 T02560157  RH  054%=      5-min Rain = 0
KPG1 140732Z 18010KT 26/16 A2993 RMK A01 T02560157  RH  054%=      5-min Rain = 0
KPG1 140733Z 17008KT 26/16 A2993 RMK A01 T02560158  RH  054%=      5-min Rain = 0
KPG1 140734Z 18008KT 26/16 A2993 RMK A01 T02560158  RH  055%=      5-min Rain = 0
KPG1 140735Z 18009KT 26/16 A2993 RMK A01 T02560158  RH  055%=      5-min Rain = 0
KPG1 140736Z 18010KT 26/16 A2993 RMK A01 T02550159  RH  055%=      5-min Rain = 0
KPG1 140737Z 17009KT 26/16 A2993 RMK A01 T02550159  RH  055%=      5-min Rain = 0
KPG1 140738Z 18009KT 26/16 A2993 RMK A01 T02560159  RH  055%=      5-min Rain = 0
KPG1 140739Z 18011KT 26/16 A2993 RMK A01 T02550160  RH  055%=      5-min Rain = 0
KPG1 140740Z 17011KT 26/16 A2993 RMK A01 T02550160  RH  055%=      5-min Rain = 0
KPG1 140741Z 18011KT 26/16 A2993 RMK A01 T02550160  RH  055%=      5-min Rain = 0
KPG1 140742Z 17010KT 26/16 A2993 RMK A01 T02550160  RH  056%=      5-min Rain = 0
KPG1 140743Z 17009KT 26/16 A2993 RMK A01 T02560160  RH  056%=      5-min Rain = 0
KPG1 140744Z 18011KT 26/16 A2993 RMK A01 T02550160  RH  056%=      5-min Rain = 0
KPG1 140745Z 17009KT 26/16 A2993 RMK A01 T02550160  RH  056%=      5-min Rain = 0
KPG1 140746Z 18011KT 26/16 A2993 RMK A01 T02550160  RH  056%=      5-min Rain = 0
KPG1 140747Z 18008KT 26/16 A2993 RMK A01 T02550160  RH  056%=      5-min Rain = 0
KPG1 140748Z 18008KT 26/16 A2993 RMK A01 T02550160  RH  056%=      5-min Rain = 0
KPG1 140749Z 18010KT 25/16 A2993 RMK A01 T02540160  RH  056%=      5-min Rain = 0
KPG1 140750Z 17010KT 25/16 A2993 RMK A01 T02540161  RH  056%=      5-min Rain = 0
KPG1 140751Z 18012KT 25/16 A2993 RMK A01 T02540161  RH  056%=      5-min Rain = 0
KPG1 140752Z 17011KT 25/16 A2993 RMK A01 T02540161  RH  056%=      5-min Rain = 0
KPG1 140753Z 17011KT 25/16 A2993 RMK A01 T02540161  RH  056%=      5-min Rain = 0
KPG1 140754Z 18010KT 25/16 A2993 RMK A01 T02540161  RH  056%=      5-min Rain = 0
KPG1 140755Z 18011KT 25/16 A2993 RMK A01 T02540161  RH  056%=      5-min Rain = 0
KPG1 140756Z 18009KT 25/16 A2993 RMK A01 T02530160  RH  056%=      5-min Rain = 0
KPG1 140757Z 17011KT 25/16 A2993 RMK A01 T02540161  RH  056%=      5-min Rain = 0
KPG1 140758Z 18008KT 25/16 A2993 RMK A01 T02540161  RH  056%=      5-min Rain = 0
KPG1 140759Z 18007KT 25/16 A2993 RMK A01 T02530161  RH  056%=      5-min Rain = 0
KPG1 140800Z 18007KT 25/16 A2993 RMK A01 T02530161  RH  056%=      5-min Rain = 0
KPG1 140801Z 18007KT 25/16 A2993 RMK A01 T02520160  RH  057%=      5-min Rain = 0
KPG1 140802Z 18008KT 25/16 A2993 RMK A01 T02520160  RH  057%=      5-min Rain = 0
KPG1 140803Z 17009KT 25/16 A2993 RMK A01 T02520160  RH  057%=      5-min Rain = 0
KPG1 140804Z 18010KT 25/16 A2993 RMK A01 T02520160  RH  057%=      5-min Rain = 0
KPG1 140805Z 18009KT 25/16 A2993 RMK A01 T02520160  RH  057%=      5-min Rain = 0
KPG1 140806Z 18010KT 25/16 A2993 RMK A01 T02520160  RH  057%=      5-min Rain = 0
KPG1 140807Z 18010KT 25/16 A2993 RMK A01 T02520160  RH  057%=      5-min Rain = 0
KPG1 140808Z 19009KT 25/16 A2993 RMK A01 T02520160  RH  057%=      5-min Rain = 0
KPG1 140809Z 19010KT 25/16 A2992 RMK A01 T02520160  RH  057%=      5-min Rain = 0
KPG1 140810Z 19010KT 25/16 A2992 RMK A01 T02520160  RH  057%=      5-min Rain = 0
KPG1 140811Z 19010KT 25/16 A2992 RMK A01 T02520160  RH  057%=      5-min Rain = 0
KPG1 140812Z 20009KT 25/16 A2992 RMK A01 T02520160  RH  057%=      5-min Rain = 0
KPG1 140813Z 19008KT 25/16 A2992 RMK A01 T02520160  RH  057%=      5-min Rain = 0
KPG1 140814Z 20008KT 25/16 A2992 RMK A01 T02520160  RH  057%=      5-min Rain = 0
KPG1 140815Z 20008KT 25/16 A2992 RMK A01 T02510160  RH  057%=      5-min Rain = 0
KPG1 140816Z 20007KT 25/16 A2992 RMK A01 T02510160  RH  057%=      5-min Rain = 0
KPG1 140817Z 20008KT 25/16 A2992 RMK A01 T02510160  RH  057%=      5-min Rain = 0
KPG1 140818Z 20008KT 25/16 A2992 RMK A01 T02510160  RH  057%=      5-min Rain = 0
KPG1 140819Z 20007KT 25/16 A2992 RMK A01 T02500160  RH  057%=      5-min Rain = 0
KPG1 140820Z 20009KT 25/16 A2992 RMK A01 T02500160  RH  057%=      5-min Rain = 0
KPG1 140821Z 21008KT 25/16 A2992 RMK A01 T02500159  RH  057%=      5-min Rain = 0
KPG1 140822Z 21008KT 25/16 A2992 RMK A01 T02490160  RH  057%=      5-min Rain = 0
KPG1 140823Z 21008KT 25/16 A2992 RMK A01 T02490159  RH  057%=      5-min Rain = 0
KPG1 140824Z 21008KT 25/16 A2992 RMK A01 T02480159  RH  058%=      5-min Rain = 0
KPG1 140825Z 21008KT 25/16 A2992 RMK A01 T02480159  RH  058%=      5-min Rain = 0
KPG1 140826Z 22008KT 25/16 A2992 RMK A01 T02480159  RH  058%=      5-min Rain = 0
KPG1 140827Z 22007KT 25/16 A2992 RMK A01 T02470159  RH  058%=      5-min Rain = 0
KPG1 140828Z 22007KT 25/16 A2992 RMK A01 T02460158  RH  058%=      5-min Rain = 0
KPG1 140829Z 23008KT 25/16 A2992 RMK A01 T02450158  RH  058%=      5-min Rain = 0
KPG1 140830Z 22008KT 24/16 A2991 RMK A01 T02440158  RH  059%=      5-min Rain = 0
KPG1 140831Z 22008KT 24/16 A2991 RMK A01 T02440159  RH  059%=      5-min Rain = 0
KPG1 140832Z 23008KT 24/16 A2992 RMK A01 T02440158  RH  059%=      5-min Rain = 0
KPG1 140833Z 23008KT 24/16 A2992 RMK A01 T02440159  RH  059%=      5-min Rain = 0
KPG1 140834Z 23008KT 24/16 A2992 RMK A01 T02430158  RH  059%=      5-min Rain = 0
KPG1 140835Z 22009KT 24/16 A2992 RMK A01 T02430158  RH  059%=      5-min Rain = 0
KPG1 140836Z 23009KT 24/16 A2992 RMK A01 T02430158  RH  059%=      5-min Rain = 0
KPG1 140837Z 23009KT 24/16 A2992 RMK A01 T02440158  RH  059%=      5-min Rain = 0
KPG1 140838Z 22009KT 24/16 A2992 RMK A01 T02440158  RH  059%=      5-min Rain = 0
KPG1 140839Z 22008KT 24/16 A2992 RMK A01 T02440159  RH  059%=      5-min Rain = 0
KPG1 140840Z 22008KT 24/16 A2992 RMK A01 T02440158  RH  059%=      5-min Rain = 0
KPG1 140841Z 22009KT 24/16 A2992 RMK A01 T02440158  RH  059%=      5-min Rain = 0
KPG1 140842Z 22008KT 24/16 A2992 RMK A01 T02440159  RH  059%=      5-min Rain = 0
KPG1 140843Z 22009KT 24/16 A2992 RMK A01 T02440159  RH  059%=      5-min Rain = 0
KPG1 140844Z 22008KT 24/16 A2992 RMK A01 T02440158  RH  059%=      5-min Rain = 0
KPG1 140845Z 21008KT 24/16 A2992 RMK A01 T02440158  RH  059%=      5-min Rain = 0
KPG1 140846Z 22008KT 24/16 A2992 RMK A01 T02440159  RH  059%=      5-min Rain = 0
KPG1 140847Z 22008KT 24/16 A2992 RMK A01 T02440159  RH  059%=      5-min Rain = 0
KPG1 140848Z 22008KT 24/16 A2992 RMK A01 T02440159  RH  059%=      5-min Rain = 0
KPG1 140849Z 21008KT 25/16 A2992 RMK A01 T02450159  RH  059%=      5-min Rain = 0
KPG1 140850Z 21009KT 25/16 A2992 RMK A01 T02450159  RH  059%=      5-min Rain = 0
KPG1 140851Z 20009KT 24/16 A2992 RMK A01 T02440159  RH  059%=      5-min Rain = 0
KPG1 140852Z 20008KT 24/16 A2992 RMK A01 T02440159  RH  059%=      5-min Rain = 0
KPG1 140853Z 21008KT 25/16 A2992 RMK A01 T02450159  RH  059%=      5-min Rain = 0
KPG1 140854Z 20008KT 24/16 A2992 RMK A01 T02440159  RH  059%=      5-min Rain = 0
KPG1 140855Z 20008KT 24/16 A2992 RMK A01 T02440159  RH  059%=      5-min Rain = 0
KPG1 140856Z 20008KT 25/16 A2992 RMK A01 T02450159  RH  059%=      5-min Rain = 0
KPG1 140857Z 20008KT 25/16 A2992 RMK A01 T02450159  RH  059%=      5-min Rain = 0
KPG1 140858Z 20008KT 25/16 A2992 RMK A01 T02460159  RH  058%=      5-min Rain = 0
KPG1 140859Z 20007KT 25/16 A2992 RMK A01 T02460159  RH  058%=      5-min Rain = 0
KPG1 140900Z 20007KT 25/16 A2992 RMK A01 T02460159  RH  058%=      5-min Rain = 0
KPG1 140901Z 20007KT 25/16 A2992 RMK A01 T02460159  RH  058%=      5-min Rain = 0
KPG1 140902Z 20008KT 25/16 A2992 RMK A01 T02460159  RH  058%=      5-min Rain = 0
KPG1 140903Z 20010KT 25/16 A2992 RMK A01 T02460159  RH  058%=      5-min Rain = 0
KPG1 140904Z 20007KT 25/16 A2992 RMK A01 T02470159  RH  058%=      5-min Rain = 0
KPG1 140905Z 20008KT 25/16 A2992 RMK A01 T02480159  RH  058%=      5-min Rain = 0
KPG1 140906Z 20007KT 25/16 A2992 RMK A01 T02470159  RH  058%=      5-min Rain = 0
KPG1 140907Z 21007KT 25/16 A2992 RMK A01 T02470159  RH  058%=      5-min Rain = 0
KPG1 140908Z 21007KT 25/16 A2992 RMK A01 T02470159  RH  058%=      5-min Rain = 0
KPG1 140909Z 21007KT 25/16 A2992 RMK A01 T02470159  RH  058%=      5-min Rain = 0
KPG1 140910Z 21008KT 25/16 A2992 RMK A01 T02470159  RH  058%=      5-min Rain = 0
KPG1 140911Z 20008KT 25/16 A2992 RMK A01 T02470159  RH  058%=      5-min Rain = 0
KPG1 140912Z 21007KT 25/16 A2992 RMK A01 T02470159  RH  058%=      5-min Rain = 0
KPG1 140913Z 20006KT 25/16 A2992 RMK A01 T02470159  RH  058%=      5-min Rain = 0
KPG1 140914Z 21006KT 25/16 A2992 RMK A01 T02470159  RH  058%=      5-min Rain = 0
KPG1 140915Z 21006KT 25/16 A2992 RMK A01 T02470159  RH  058%=      5-min Rain = 0
KPG1 140916Z 21006KT 25/16 A2992 RMK A01 T02470159  RH  058%=      5-min Rain = 0
KPG1 140917Z 21006KT 25/16 A2992 RMK A01 T02470159  RH  058%=      5-min Rain = 0
KPG1 140918Z 21006KT 25/16 A2992 RMK A01 T02470159  RH  058%=      5-min Rain = 0
KPG1 140919Z 21006KT 25/16 A2992 RMK A01 T02470159  RH  058%=      5-min Rain = 0
KPG1 140920Z 21007KT 25/16 A2992 RMK A01 T02470159  RH  058%=      5-min Rain = 0
KPG1 140921Z 22006KT 25/16 A2992 RMK A01 T02470160  RH  058%=      5-min Rain = 0
KPG1 140922Z 20007KT 25/16 A2992 RMK A01 T02460159  RH  058%=      5-min Rain = 0
KPG1 140923Z 21009KT 25/16 A2992 RMK A01 T02460160  RH  058%=      5-min Rain = 0
KPG1 140924Z 21009KT 25/16 A2992 RMK A01 T02460160  RH  059%=      5-min Rain = 0
KPG1 140925Z 21010KT 25/16 A2992 RMK A01 T02470160  RH  058%=      5-min Rain = 0
KPG1 140926Z 22009KT 25/16 A2993 RMK A01 T02470160  RH  058%=      5-min Rain = 0
KPG1 140927Z 21008KT 25/16 A2993 RMK A01 T02480160  RH  058%=      5-min Rain = 0
KPG1 140928Z 21008KT 25/16 A2993 RMK A01 T02480160  RH  058%=      5-min Rain = 0
KPG1 140929Z 21008KT 25/16 A2993 RMK A01 T02470161  RH  059%=      5-min Rain = 0
KPG1 140930Z 21008KT 25/16 A2993 RMK A01 T02470161  RH  059%=      5-min Rain = 0
KPG1 140931Z 20008KT 25/16 A2993 RMK A01 T02470161  RH  059%=      5-min Rain = 0
KPG1 140932Z 20007KT 25/16 A2993 RMK A01 T02480161  RH  059%=      5-min Rain = 0
KPG1 140933Z 20008KT 25/16 A2993 RMK A01 T02480161  RH  058%=      5-min Rain = 0
KPG1 140934Z 19007KT 25/16 A2993 RMK A01 T02480161  RH  059%=      5-min Rain = 0
KPG1 140935Z 20007KT 25/16 A2993 RMK A01 T02480161  RH  059%=      5-min Rain = 0
KPG1 140936Z 19008KT 25/16 A2993 RMK A01 T02480162  RH  059%=      5-min Rain = 0
KPG1 140937Z 19008KT 25/16 A2993 RMK A01 T02480162  RH  059%=      5-min Rain = 0
KPG1 140938Z 19007KT 25/16 A2993 RMK A01 T02480162  RH  059%=      5-min Rain = 0
KPG1 140939Z 19007KT 25/16 A2993 RMK A01 T02480162  RH  059%=      5-min Rain = 0
KPG1 140940Z 19006KT 25/16 A2993 RMK A01 T02480162  RH  059%=      5-min Rain = 0
KPG1 140941Z 19007KT 25/16 A2993 RMK A01 T02480162  RH  059%=      5-min Rain = 0
KPG1 140942Z 19007KT 25/16 A2993 RMK A01 T02480163  RH  059%=      5-min Rain = 0
KPG1 140943Z 19008KT 25/16 A2993 RMK A01 T02480163  RH  059%=      5-min Rain = 0
KPG1 140944Z 20006KT 25/16 A2993 RMK A01 T02480162  RH  059%=      5-min Rain = 0
KPG1 140945Z 19007KT 25/16 A2993 RMK A01 T02480162  RH  059%=      5-min Rain = 0
KPG1 140946Z 20007KT 25/16 A2993 RMK A01 T02480162  RH  059%=      5-min Rain = 0
KPG1 140947Z 20006KT 25/16 A2993 RMK A01 T02480163  RH  059%=      5-min Rain = 0
KPG1 140948Z 19006KT 25/16 A2993 RMK A01 T02480163  RH  059%=      5-min Rain = 0
KPG1 140949Z 19007KT 25/16 A2993 RMK A01 T02480163  RH  059%=      5-min Rain = 0
KPG1 140950Z 19007KT 25/16 A2993 RMK A01 T02480163  RH  059%=      5-min Rain = 0
KPG1 140951Z 19008KT 25/16 A2993 RMK A01 T02480163  RH  059%=      5-min Rain = 0
KPG1 140952Z 19008KT 25/16 A2993 RMK A01 T02480163  RH  059%=      5-min Rain = 0
KPG1 140953Z 19007KT 25/16 A2993 RMK A01 T02490163  RH  059%=      5-min Rain = 0
KPG1 140954Z 19008KT 25/16 A2993 RMK A01 T02490163  RH  059%=      5-min Rain = 0
KPG1 140955Z 18009KT 25/16 A2993 RMK A01 T02490163  RH  059%=      5-min Rain = 0
KPG1 140956Z 18010KT 25/16 A2993 RMK A01 T02490164  RH  059%=      5-min Rain = 0
KPG1 140957Z 18011KT 25/16 A2993 RMK A01 T02500164  RH  059%=      5-min Rain = 0
KPG1 140958Z 18009KT 25/16 A2993 RMK A01 T02510164  RH  059%=      5-min Rain = 0
KPG1 140959Z 18011KT 25/16 A2993 RMK A01 T02510164  RH  058%=      5-min Rain = 0
KPG1 141000Z 18010KT 25/16 A2993 RMK A01 T02510164  RH  058%=      5-min Rain = 0
KPG1 141001Z 18010KT 25/16 A2993 RMK A01 T02510164  RH  058%=      5-min Rain = 0
KPG1 141002Z 17011KT 25/16 A2993 RMK A01 T02510164  RH  058%=      5-min Rain = 0
KPG1 141003Z 17012KT 25/16 A2993 RMK A01 T02510164  RH  058%=      5-min Rain = 0
KPG1 141004Z 17011KT 25/16 A2993 RMK A01 T02520164  RH  058%=      5-min Rain = 0
KPG1 141005Z 17009KT 25/16 A2993 RMK A01 T02520164  RH  058%=      5-min Rain = 0
KPG1 141006Z 17009KT 25/16 A2993 RMK A01 T02520164  RH  058%=      5-min Rain = 0
KPG1 141007Z 18009KT 25/16 A2993 RMK A01 T02520164  RH  058%=      5-min Rain = 0
KPG1 141008Z 18009KT 25/16 A2993 RMK A01 T02520164  RH  058%=      5-min Rain = 0
KPG1 141009Z 19012KT 25/16 A2993 RMK A01 T02520163  RH  058%=      5-min Rain = 0
KPG1 141010Z 18010KT 25/16 A2993 RMK A01 T02530163  RH  057%=      5-min Rain = 0
KPG1 141011Z 18009KT 25/16 A2993 RMK A01 T02530162  RH  057%=      5-min Rain = 0
KPG1 141012Z 18009KT 25/16 A2993 RMK A01 T02540162  RH  057%=      5-min Rain = 0
KPG1 141013Z 18009KT 25/16 A2993 RMK A01 T02540162  RH  057%=      5-min Rain = 0
KPG1 141014Z 18009KT 25/16 A2993 RMK A01 T02540161  RH  057%=      5-min Rain = 0
KPG1 141015Z 18009KT 25/16 A2993 RMK A01 T02540161  RH  056%=      5-min Rain = 0
KPG1 141016Z 18010KT 25/16 A2993 RMK A01 T02540161  RH  056%=      5-min Rain = 0
KPG1 141017Z 19010KT 25/16 A2993 RMK A01 T02540160  RH  056%=      5-min Rain = 0
KPG1 141018Z 19011KT 25/16 A2993 RMK A01 T02540160  RH  056%=      5-min Rain = 0
KPG1 141019Z 18011KT 25/16 A2993 RMK A01 T02540160  RH  056%=      5-min Rain = 0
KPG1 141020Z 18009KT 26/16 A2993 RMK A01 T02550160  RH  056%=      5-min Rain = 0
KPG1 141021Z 18009KT 26/16 A2993 RMK A01 T02550160  RH  056%=      5-min Rain = 0
KPG1 141022Z 18010KT 26/16 A2993 RMK A01 T02550159  RH  056%=      5-min Rain = 0
KPG1 141023Z 18009KT 26/16 A2993 RMK A01 T02550159  RH  056%=      5-min Rain = 0
KPG1 141024Z 19009KT 25/16 A2993 RMK A01 T02540159  RH  055%=      5-min Rain = 0
KPG1 141025Z 19010KT 25/16 A2993 RMK A01 T02540158  RH  055%=      5-min Rain = 0
KPG1 141026Z 19009KT 26/16 A2993 RMK A01 T02550158  RH  055%=      5-min Rain = 0
KPG1 141027Z 20009KT 26/16 A2993 RMK A01 T02550158  RH  055%=      5-min Rain = 0
KPG1 141028Z 19008KT 25/16 A2993 RMK A01 T02540157  RH  055%=      5-min Rain = 0
KPG1 141029Z 20007KT 25/16 A2993 RMK A01 T02540157  RH  055%=      5-min Rain = 0
KPG1 141030Z 21006KT 25/16 A2993 RMK A01 T02540156  RH  055%=      5-min Rain = 0
KPG1 141031Z 20007KT 25/16 A2993 RMK A01 T02530155  RH  054%=      5-min Rain = 0
KPG1 141032Z 19009KT 25/16 A2993 RMK A01 T02530155  RH  054%=      5-min Rain = 0
KPG1 141033Z 19011KT 25/16 A2993 RMK A01 T02530156  RH  055%=      5-min Rain = 0
KPG1 141034Z 20008KT 25/16 A2993 RMK A01 T02530156  RH  055%=      5-min Rain = 0
KPG1 141035Z 20010KT 25/16 A2993 RMK A01 T02540155  RH  054%=      5-min Rain = 0
KPG1 141036Z 21007KT 25/16 A2993 RMK A01 T02540155  RH  054%=      5-min Rain = 0
KPG1 141037Z 19009KT 25/15 A2993 RMK A01 T02540154  RH  054%=      5-min Rain = 0
KPG1 141038Z 20007KT 25/15 A2993 RMK A01 T02540154  RH  054%=      5-min Rain = 0
KPG1 141039Z 19007G12KT 25/15 A2993 RMK A01 T02530154  RH  054%=      5-min Rain = 0
KPG1 141040Z 19010KT 25/16 A2993 RMK A01 T02530155  RH  055%=      5-min Rain = 0
KPG1 141041Z 20008G14KT 25/16 A2993 RMK A01 T02530155  RH  055%=      5-min Rain = 0
KPG1 141042Z 20008KT 25/16 A2993 RMK A01 T02540155  RH  054%=      5-min Rain = 0
KPG1 141043Z 19007KT 25/15 A2994 RMK A01 T02530154  RH  054%=      5-min Rain = 0
KPG1 141044Z 18009KT 25/16 A2994 RMK A01 T02540156  RH  055%=      5-min Rain = 0
KPG1 141045Z 19008KT 25/16 A2994 RMK A01 T02540157  RH  055%=      5-min Rain = 0
KPG1 141046Z 19009KT 25/16 A2994 RMK A01 T02540157  RH  055%=      5-min Rain = 0
KPG1 141047Z 19010KT 25/16 A2994 RMK A01 T02530157  RH  055%=      5-min Rain = 0
KPG1 141048Z 20007KT 25/16 A2994 RMK A01 T02540156  RH  055%=      5-min Rain = 0
KPG1 141049Z 20005KT 25/16 A2994 RMK A01 T02540157  RH  055%=      5-min Rain = 0
KPG1 141050Z 19008KT 25/16 A2994 RMK A01 T02530156  RH  055%=      5-min Rain = 0
KPG1 141051Z 19011KT 25/16 A2994 RMK A01 T02530155  RH  055%=      5-min Rain = 0
KPG1 141052Z 19008KT 25/16 A2994 RMK A01 T02530155  RH  055%=      5-min Rain = 0
KPG1 141053Z 19010KT 25/16 A2994 RMK A01 T02530155  RH  054%=      5-min Rain = 0
KPG1 141054Z 18009KT 25/15 A2994 RMK A01 T02530154  RH  054%=      5-min Rain = 0
KPG1 141055Z 19009KT 25/16 A2994 RMK A01 T02530155  RH  054%=      5-min Rain = 0
KPG1 141056Z 19008KT 25/15 A2994 RMK A01 T02530154  RH  054%=      5-min Rain = 0
KPG1 141057Z 19008KT 25/15 A2994 RMK A01 T02530154  RH  054%=      5-min Rain = 0
KPG1 141058Z 19008KT 25/15 A2994 RMK A01 T02530154  RH  054%=      5-min Rain = 0
KPG1 141059Z 19009KT 25/15 A2994 RMK A01 T02530154  RH  054%=      5-min Rain = 0
KPG1 141100Z 20008KT 25/15 A2994 RMK A01 T02530154  RH  054%=      5-min Rain = 0
KPG1 141101Z 19008KT 25/15 A2994 RMK A01 T02530154  RH  054%=      5-min Rain = 0
KPG1 141102Z 21008KT 25/15 A2994 RMK A01 T02530154  RH  054%=      5-min Rain = 0
KPG1 141103Z 20009KT 25/15 A2994 RMK A01 T02530153  RH  054%=      5-min Rain = 0
KPG1 141104Z 19008KT 25/15 A2994 RMK A01 T02530153  RH  054%=      5-min Rain = 0
KPG1 141105Z 19009KT 25/15 A2994 RMK A01 T02530153  RH  054%=      5-min Rain = 0
KPG1 141106Z 21008KT 25/15 A2994 RMK A01 T02540153  RH  054%=      5-min Rain = 0
KPG1 141107Z 22008KT 25/15 A2994 RMK A01 T02540153  RH  054%=      5-min Rain = 0
KPG1 141108Z 21012KT 25/15 A2994 RMK A01 T02520152  RH  054%=      5-min Rain = 0
KPG1 141109Z 21009KT 25/15 A2994 RMK A01 T02530152  RH  054%=      5-min Rain = 0
KPG1 141110Z 23007KT 25/15 A2994 RMK A01 T02530151  RH  053%=      5-min Rain = 0
KPG1 141111Z 22009KT 25/15 A2994 RMK A01 T02520150  RH  053%=      5-min Rain = 0
KPG1 141112Z 20008KT 25/15 A2994 RMK A01 T02510151  RH  054%=      5-min Rain = 0
KPG1 141113Z 21006KT 25/15 A2994 RMK A01 T02500150  RH  054%=      5-min Rain = 0
KPG1 141114Z 22007KT 25/15 A2994 RMK A01 T02490149  RH  054%=      5-min Rain = 0
KPG1 141115Z 22006KT 25/15 A2994 RMK A01 T02480149  RH  054%=      5-min Rain = 0
KPG1 141116Z 22007KT 25/15 A2994 RMK A01 T02470149  RH  054%=      5-min Rain = 0
KPG1 141117Z 23007KT 25/15 A2994 RMK A01 T02460149  RH  055%=      5-min Rain = 0
KPG1 141118Z 23006KT 25/15 A2994 RMK A01 T02460149  RH  055%=      5-min Rain = 0
KPG1 141119Z 23006KT 25/15 A2994 RMK A01 T02450149  RH  055%=      5-min Rain = 0
KPG1 141120Z 23007KT 25/15 A2994 RMK A01 T02450148  RH  055%=      5-min Rain = 0
KPG1 141121Z 22007KT 24/15 A2994 RMK A01 T02440148  RH  055%=      5-min Rain = 0
KPG1 141122Z 21007KT 25/15 A2994 RMK A01 T02450149  RH  055%=      5-min Rain = 0
KPG1 141123Z 21007KT 24/15 A2994 RMK A01 T02440149  RH  055%=      5-min Rain = 0
KPG1 141124Z 21006KT 25/15 A2994 RMK A01 T02450149  RH  055%=      5-min Rain = 0
KPG1 141125Z 22006KT 25/15 A2994 RMK A01 T02450149  RH  055%=      5-min Rain = 0
KPG1 141126Z 22005KT 25/15 A2994 RMK A01 T02450149  RH  055%=      5-min Rain = 0
KPG1 141127Z 20005KT 25/15 A2994 RMK A01 T02450149  RH  055%=      5-min Rain = 0
KPG1 141128Z 21004KT 25/15 A2994 RMK A01 T02450149  RH  055%=      5-min Rain = 0
KPG1 141129Z 21005KT 25/15 A2994 RMK A01 T02450149  RH  055%=      5-min Rain = 0
KPG1 141130Z 22004KT 25/15 A2994 RMK A01 T02450149  RH  055%=      5-min Rain = 0
KPG1 141131Z 23004KT 25/15 A2994 RMK A01 T02450149  RH  055%=      5-min Rain = 0
KPG1 141132Z 22004KT 24/15 A2994 RMK A01 T02440149  RH  055%=      5-min Rain = 0
KPG1 141133Z 22005KT 24/15 A2994 RMK A01 T02430149  RH  055%=      5-min Rain = 0
KPG1 141134Z 22005KT 24/15 A2994 RMK A01 T02430149  RH  055%=      5-min Rain = 0
KPG1 141135Z 23004KT 24/15 A2994 RMK A01 T02430149  RH  056%=      5-min Rain = 0
KPG1 141136Z 22004KT 24/15 A2994 RMK A01 T02430149  RH  055%=      5-min Rain = 0
KPG1 141137Z 22004KT 24/15 A2994 RMK A01 T02440149  RH  055%=      5-min Rain = 0
KPG1 141138Z 22004KT 24/15 A2994 RMK A01 T02440149  RH  055%=      5-min Rain = 0
KPG1 141139Z 22004KT 24/15 A2994 RMK A01 T02440149  RH  056%=      5-min Rain = 0
KPG1 141140Z 22003KT 24/15 A2994 RMK A01 T02440149  RH  055%=      5-min Rain = 0
KPG1 141141Z 22003KT 24/15 A2994 RMK A01 T02430149  RH  055%=      5-min Rain = 0
KPG1 141142Z 22003KT 24/15 A2994 RMK A01 T02440149  RH  055%=      5-min Rain = 0
KPG1 141143Z 22003KT 24/15 A2994 RMK A01 T02430148  RH  056%=      5-min Rain = 0
KPG1 141144Z 22003KT 24/15 A2994 RMK A01 T02420148  RH  056%=      5-min Rain = 0
KPG1 141145Z 22003KT 24/15 A2994 RMK A01 T02420148  RH  056%=      5-min Rain = 0
KPG1 141146Z 20003KT 24/15 A2994 RMK A01 T02410148  RH  056%=      5-min Rain = 0
KPG1 141147Z 19003KT 24/15 A2994 RMK A01 T02410148  RH  056%=      5-min Rain = 0
KPG1 141148Z 19003KT 24/15 A2994 RMK A01 T02400147  RH  056%=      5-min Rain = 0
KPG1 141149Z 18003KT 24/15 A2994 RMK A01 T02400147  RH  056%=      5-min Rain = 0
KPG1 141150Z 18003KT 24/15 A2994 RMK A01 T02390147  RH  056%=      5-min Rain = 0
KPG1 141151Z 18003KT 24/15 A2994 RMK A01 T02390148  RH  057%=      5-min Rain = 0
KPG1 141152Z 17003KT 24/15 A2994 RMK A01 T02390148  RH  057%=      5-min Rain = 0
KPG1 141153Z 17003KT 24/15 A2994 RMK A01 T02390148  RH  057%=      5-min Rain = 0
KPG1 141154Z 17003KT 24/15 A2994 RMK A01 T02390148  RH  057%=      5-min Rain = 0
KPG1 141155Z 16003KT 24/15 A2994 RMK A01 T02390148  RH  057%=      5-min Rain = 0
KPG1 141156Z 17003KT 24/15 A2994 RMK A01 T02390148  RH  057%=      5-min Rain = 0
KPG1 141157Z 16004KT 24/15 A2994 RMK A01 T02400148  RH  056%=      5-min Rain = 0
KPG1 141158Z 16003KT 24/15 A2994 RMK A01 T02400148  RH  056%=      5-min Rain = 0
KPG1 141159Z 14003KT 24/15 A2994 RMK A01 T02410148  RH  056%=      5-min Rain = 0
KPG1 141200Z 14005KT 24/15 A2994 RMK A01 T02420146  RH  055%=      5-min Rain = 0
KPG1 141201Z 15005KT 24/15 A2994 RMK A01 T02430145  RH  054%=      5-min Rain = 0
KPG1 141202Z 15005KT 24/14 A2994 RMK A01 T02440144  RH  054%=      5-min Rain = 0
KPG1 141203Z 14004KT 25/14 A2994 RMK A01 T02460144  RH  053%=      5-min Rain = 0
KPG1 141204Z 14003KT 25/14 A2994 RMK A01 T02460143  RH  053%=      5-min Rain = 0
KPG1 141205Z 15005KT 25/14 A2994 RMK A01 T02470142  RH  052%=      5-min Rain = 0
KPG1 141206Z 15004KT 25/14 A2994 RMK A01 T02470140  RH  051%=      5-min Rain = 0
KPG1 141207Z 15006KT 25/14 A2994 RMK A01 T02470140  RH  051%=      5-min Rain = 0
KPG1 141208Z 14006KT 25/14 A2994 RMK A01 T02480139  RH  051%=      5-min Rain = 0
KPG1 141209Z 15006KT 25/14 A2994 RMK A01 T02490139  RH  051%=      5-min Rain = 0
KPG1 141210Z 14007KT 25/14 A2994 RMK A01 T02490139  RH  050%=      5-min Rain = 0
KPG1 141211Z 16006KT 25/14 A2994 RMK A01 T02490138  RH  050%=      5-min Rain = 0
KPG1 141212Z 14004KT 25/14 A2994 RMK A01 T02500138  RH  050%=      5-min Rain = 0
KPG1 141213Z 16004KT 25/14 A2994 RMK A01 T02500138  RH  050%=      5-min Rain = 0
KPG1 141214Z 15004KT 25/14 A2994 RMK A01 T02490138  RH  050%=      5-min Rain = 0
KPG1 141215Z 15004KT 25/14 A2994 RMK A01 T02490137  RH  050%=      5-min Rain = 0
KPG1 141216Z 16005KT 25/14 A2994 RMK A01 T02490137  RH  050%=      5-min Rain = 0
KPG1 141217Z 15006KT 25/14 A2994 RMK A01 T02490137  RH  050%=      5-min Rain = 0
KPG1 141218Z 14006KT 25/14 A2994 RMK A01 T02490136  RH  050%=      5-min Rain = 0
KPG1 141219Z 14005KT 25/14 A2994 RMK A01 T02490136  RH  049%=      5-min Rain = 0
KPG1 141220Z 15005KT 25/14 A2994 RMK A01 T02490136  RH  049%=      5-min Rain = 0
KPG1 141221Z 15006KT 25/14 A2994 RMK A01 T02490136  RH  049%=      5-min Rain = 0
KPG1 141222Z 16007KT 25/14 A2994 RMK A01 T02490135  RH  049%=      5-min Rain = 0
KPG1 141223Z 15006KT 25/14 A2995 RMK A01 T02500136  RH  049%=      5-min Rain = 0
KPG1 141224Z 16006KT 25/14 A2995 RMK A01 T02490136  RH  049%=      5-min Rain = 0
KPG1 141225Z 15006KT 25/14 A2995 RMK A01 T02490135  RH  049%=      5-min Rain = 0
KPG1 141226Z 15006KT 25/14 A2995 RMK A01 T02500135  RH  049%=      5-min Rain = 0
KPG1 141227Z 15006KT 25/13 A2995 RMK A01 T02500134  RH  049%=      5-min Rain = 0
KPG1 141228Z 15007KT 25/13 A2995 RMK A01 T02490134  RH  049%=      5-min Rain = 0
KPG1 141229Z 15006KT 25/13 A2995 RMK A01 T02500134  RH  049%=      5-min Rain = 0
KPG1 141230Z 15007KT 25/13 A2995 RMK A01 T02500134  RH  048%=      5-min Rain = 0
KPG1 141231Z 14007KT 25/13 A2995 RMK A01 T02500133  RH  048%=      5-min Rain = 0
KPG1 141232Z 14006KT 25/13 A2995 RMK A01 T02500133  RH  048%=      5-min Rain = 0
KPG1 141233Z 14005KT 25/13 A2995 RMK A01 T02510133  RH  048%=      5-min Rain = 0
KPG1 141234Z 14006KT 25/13 A2995 RMK A01 T02510133  RH  048%=      5-min Rain = 0
KPG1 141235Z 15006KT 25/13 A2995 RMK A01 T02510133  RH  048%=      5-min Rain = 0
KPG1 141236Z 15007KT 25/13 A2995 RMK A01 T02510133  RH  048%=      5-min Rain = 0
KPG1 141237Z 15006KT 25/13 A2995 RMK A01 T02520133  RH  048%=      5-min Rain = 0
KPG1 141238Z 16006KT 25/13 A2995 RMK A01 T02520133  RH  048%=      5-min Rain = 0
KPG1 141239Z 15007KT 25/13 A2995 RMK A01 T02520133  RH  048%=      5-min Rain = 0
KPG1 141240Z 16008KT 25/13 A2995 RMK A01 T02520132  RH  047%=      5-min Rain = 0
KPG1 141241Z 15005KT 25/13 A2995 RMK A01 T02520132  RH  047%=      5-min Rain = 0
KPG1 141242Z 15005KT 25/13 A2995 RMK A01 T02530132  RH  047%=      5-min Rain = 0
KPG1 141243Z 15005KT 25/13 A2995 RMK A01 T02530132  RH  047%=      5-min Rain = 0
KPG1 141244Z 16005KT 25/13 A2996 RMK A01 T02530132  RH  047%=      5-min Rain = 0
KPG1 141245Z 15005KT 25/13 A2996 RMK A01 T02530132  RH  047%=      5-min Rain = 0
KPG1 141246Z 16006KT 25/13 A2996 RMK A01 T02540132  RH  047%=      5-min Rain = 0
KPG1 141247Z 15006KT 25/13 A2996 RMK A01 T02540132  RH  047%=      5-min Rain = 0
KPG1 141248Z 15007KT 25/13 A2996 RMK A01 T02540132  RH  047%=      5-min Rain = 0
KPG1 141249Z 15008KT 25/13 A2996 RMK A01 T02540131  RH  046%=      5-min Rain = 0
KPG1 141250Z 15006KT 25/13 A2996 RMK A01 T02540131  RH  046%=      5-min Rain = 0
KPG1 141251Z 15005KT 25/13 A2996 RMK A01 T02540131  RH  046%=      5-min Rain = 0
KPG1 141252Z 14004KT 26/13 A2996 RMK A01 T02550131  RH  046%=      5-min Rain = 0
KPG1 141253Z 15005KT 25/13 A2996 RMK A01 T02540131  RH  046%=      5-min Rain = 0
KPG1 141254Z 16005KT 25/13 A2997 RMK A01 T02540131  RH  046%=      5-min Rain = 0
KPG1 141255Z 16004KT 26/13 A2997 RMK A01 T02550131  RH  046%=      5-min Rain = 0
KPG1 141256Z 17005KT 26/13 A2997 RMK A01 T02550131  RH  046%=      5-min Rain = 0
KPG1 141257Z 18004KT 26/13 A2997 RMK A01 T02550131  RH  046%=      5-min Rain = 0
KPG1 141258Z 19003KT 26/13 A2997 RMK A01 T02550131  RH  046%=      5-min Rain = 0
KPG1 141259Z 19003KT 26/13 A2997 RMK A01 T02550131  RH  046%=      5-min Rain = 0
KPG1 141300Z 20003KT 26/13 A2997 RMK A01 T02550131  RH  046%=      5-min Rain = 0
KPG1 141301Z 19003KT 26/13 A2997 RMK A01 T02550132  RH  046%=      5-min Rain = 0
KPG1 141302Z 19003KT 25/13 A2997 RMK A01 T02540132  RH  047%=      5-min Rain = 0
KPG1 141303Z 19003KT 25/13 A2997 RMK A01 T02540132  RH  047%=      5-min Rain = 0
KPG1 141304Z 20003KT 25/13 A2997 RMK A01 T02540132  RH  047%=      5-min Rain = 0
KPG1 141305Z 19003KT 25/13 A2997 RMK A01 T02540132  RH  047%=      5-min Rain = 0
KPG1 141306Z 19003KT 25/13 A2998 RMK A01 T02530132  RH  047%=      5-min Rain = 0
KPG1 141307Z 19003KT 25/13 A2998 RMK A01 T02530132  RH  047%=      5-min Rain = 0
KPG1 141308Z 18004KT 25/13 A2998 RMK A01 T02530132  RH  047%=      5-min Rain = 0
KPG1 141309Z 15004KT 25/13 A2997 RMK A01 T02530132  RH  047%=      5-min Rain = 0
KPG1 141310Z 16004KT 25/13 A2997 RMK A01 T02530131  RH  047%=      5-min Rain = 0
KPG1 141311Z 15005KT 25/13 A2997 RMK A01 T02530131  RH  047%=      5-min Rain = 0
KPG1 141312Z 15005KT 25/13 A2998 RMK A01 T02530131  RH  047%=      5-min Rain = 0
KPG1 141313Z 14005KT 25/13 A2998 RMK A01 T02540131  RH  046%=      5-min Rain = 0
KPG1 141314Z 14004KT 25/13 A2998 RMK A01 T02540131  RH  046%=      5-min Rain = 0
KPG1 141315Z 13002KT 26/13 A2998 RMK A01 T02550131  RH  046%=      5-min Rain = 0
KPG1 141316Z 15001KT 26/13 A2998 RMK A01 T02550131  RH  046%=      5-min Rain = 0
KPG1 141317Z 33000KT 26/13 A2998 RMK A01 T02550131  RH  046%=      5-min Rain = 0
KPG1 141318Z 30001KT 26/13 A2998 RMK A01 T02550131  RH  046%=      5-min Rain = 0
KPG1 141319Z 33001KT 26/13 A2998 RMK A01 T02550132  RH  046%=      5-min Rain = 0
KPG1 141320Z 35002KT 26/13 A2998 RMK A01 T02550131  RH  046%=      5-min Rain = 0
KPG1 141321Z 35002KT 26/13 A2998 RMK A01 T02550131  RH  046%=      5-min Rain = 0
KPG1 141322Z 00002KT 26/13 A2998 RMK A01 T02550132  RH  046%=      5-min Rain = 0
KPG1 141323Z 06002KT 26/13 A2998 RMK A01 T02550132  RH  046%=      5-min Rain = 0
KPG1 141324Z 06002KT 26/13 A2998 RMK A01 T02550131  RH  046%=      5-min Rain = 0
KPG1 141325Z 09003KT 26/13 A2998 RMK A01 T02550130  RH  046%=      5-min Rain = 0
KPG1 141326Z 12003KT 26/13 A2998 RMK A01 T02560130  RH  046%=      5-min Rain = 0
KPG1 141327Z 12003KT 26/13 A2998 RMK A01 T02560130  RH  046%=      5-min Rain = 0
KPG1 141328Z 16004KT 26/13 A2998 RMK A01 T02560130  RH  046%=      5-min Rain = 0
KPG1 141329Z 17003KT 26/13 A2998 RMK A01 T02570130  RH  045%=      5-min Rain = 0
KPG1 141330Z 17003KT 26/13 A2998 RMK A01 T02570130  RH  045%=      5-min Rain = 0
KPG1 141331Z 15003KT 26/13 A2998 RMK A01 T02570130  RH  045%=      5-min Rain = 0
KPG1 141332Z 14003KT 26/13 A2999 RMK A01 T02570129  RH  045%=      5-min Rain = 0
KPG1 141333Z 15003KT 26/13 A2999 RMK A01 T02580129  RH  045%=      5-min Rain = 0
KPG1 141334Z 14003KT 26/13 A2999 RMK A01 T02580129  RH  045%=      5-min Rain = 0
KPG1 141335Z 14003KT 26/13 A2999 RMK A01 T02580129  RH  045%=      5-min Rain = 0
KPG1 141336Z 16002KT 26/13 A2999 RMK A01 T02590130  RH  045%=      5-min Rain = 0
KPG1 141337Z 14003KT 26/13 A2999 RMK A01 T02590130  RH  045%=      5-min Rain = 0
KPG1 141338Z 15002KT 26/13 A2999 RMK A01 T02590130  RH  045%=      5-min Rain = 0
KPG1 141339Z 14002KT 26/13 A2999 RMK A01 T02600130  RH  045%=      5-min Rain = 0
KPG1 141340Z 12002KT 26/13 A2999 RMK A01 T02600130  RH  044%=      5-min Rain = 0
KPG1 141341Z 14001KT 26/13 A2999 RMK A01 T02600130  RH  044%=      5-min Rain = 0
KPG1 141342Z 16001KT 26/13 A2999 RMK A01 T02610130  RH  044%=      5-min Rain = 0
KPG1 141343Z 16002KT 26/13 A2999 RMK A01 T02610130  RH  044%=      5-min Rain = 0
KPG1 141344Z 16001KT 26/13 A2999 RMK A01 T02620130  RH  044%=      5-min Rain = 0
KPG1 141345Z 17001KT 26/13 A2999 RMK A01 T02630130  RH  044%=      5-min Rain = 0
KPG1 141346Z 14000KT 26/13 A2999 RMK A01 T02630130  RH  044%=      5-min Rain = 0
KPG1 141347Z 11000KT 26/13 A2999 RMK A01 T02640131  RH  044%=      5-min Rain = 0
KPG1 141348Z 14001KT 27/13 A2999 RMK A01 T02650130  RH  043%=      5-min Rain = 0
KPG1 141349Z 13001KT 27/13 A2999 RMK A01 T02680131  RH  043%=      5-min Rain = 0
KPG1 141350Z 14003KT 27/13 A2999 RMK A01 T02700131  RH  042%=      5-min Rain = 0
KPG1 141351Z 13002KT 27/13 A2999 RMK A01 T02710131  RH  042%=      5-min Rain = 0
KPG1 141352Z 12003KT 27/13 A2999 RMK A01 T02710131  RH  042%=      5-min Rain = 0
KPG1 141353Z 12002KT 27/13 A2999 RMK A01 T02700130  RH  042%=      5-min Rain = 0
KPG1 141354Z 11002KT 27/13 A2999 RMK A01 T02680130  RH  042%=      5-min Rain = 0
KPG1 141355Z 06003KT 27/13 A2999 RMK A01 T02670133  RH  044%=      5-min Rain = 0
KPG1 141356Z 04003KT 26/13 A2999 RMK A01 T02630134  RH  045%=      5-min Rain = 0
KPG1 141357Z 04003KT 26/13 A2999 RMK A01 T02610133  RH  045%=      5-min Rain = 0
KPG1 141358Z 06003KT 26/13 A2999 RMK A01 T02610132  RH  045%=      5-min Rain = 0
KPG1 141359Z 06004KT 26/13 A2999 RMK A01 T02630134  RH  045%=      5-min Rain = 0
KPG1 141400Z 05005KT 26/13 A2999 RMK A01 T02640134  RH  045%=      5-min Rain = 0
KPG1 141401Z 04006KT 26/13 A2999 RMK A01 T02630134  RH  045%=      5-min Rain = 0
KPG1 141402Z 03006KT 26/14 A2999 RMK A01 T02610135  RH  046%=      5-min Rain = 0
KPG1 141403Z 05007KT 26/14 A2999 RMK A01 T02590135  RH  046%=      5-min Rain = 0
KPG1 141404Z 07005KT 26/14 A2999 RMK A01 T02580135  RH  046%=      5-min Rain = 0
KPG1 141405Z 08004KT 26/14 A2999 RMK A01 T02580135  RH  047%=      5-min Rain = 0
KPG1 141406Z 12003KT 26/13 A2999 RMK A01 T02580134  RH  046%=      5-min Rain = 0
KPG1 141407Z 10003KT 26/14 A2999 RMK A01 T02590135  RH  046%=      5-min Rain = 0
KPG1 141408Z 09005KT 26/14 A2999 RMK A01 T02590135  RH  046%=      5-min Rain = 0
KPG1 141409Z 11004KT 26/13 A2999 RMK A01 T02590133  RH  046%=      5-min Rain = 0
KPG1 141410Z 07004KT 26/13 A2999 RMK A01 T02600134  RH  046%=      5-min Rain = 0
KPG1 141411Z 07004KT 26/14 A2999 RMK A01 T02600135  RH  046%=      5-min Rain = 0
KPG1 141412Z 07004KT 26/14 A2999 RMK A01 T02600135  RH  046%=      5-min Rain = 0
KPG1 141413Z 07002KT 26/14 A2999 RMK A01 T02590135  RH  046%=      5-min Rain = 0
KPG1 141414Z 05002KT 26/14 A2999 RMK A01 T02590135  RH  046%=      5-min Rain = 0
KPG1 141415Z 04002KT 26/13 A2999 RMK A01 T02590134  RH  046%=      5-min Rain = 0
KPG1 141416Z 05004KT 26/13 A2999 RMK A01 T02600134  RH  046%=      5-min Rain = 0
KPG1 141417Z 04007KT 26/14 A2999 RMK A01 T02600136  RH  046%=      5-min Rain = 0
KPG1 141418Z 06010KT 26/14 A2999 RMK A01 T02550136  RH  048%=      5-min Rain = 0
KPG1 141419Z 07008KT 25/14 A2999 RMK A01 T02520137  RH  049%=      5-min Rain = 0
KPG1 141420Z 07009KT 25/14 A2999 RMK A01 T02500138  RH  050%=      5-min Rain = 0
KPG1 141421Z 06010KT 25/14 A2999 RMK A01 T02490139  RH  051%=      5-min Rain = 0
KPG1 141422Z 06010KT 25/14 A2999 RMK A01 T02470140  RH  051%=      5-min Rain = 0
KPG1 141423Z 06010KT 25/14 A2999 RMK A01 T02460141  RH  052%=      5-min Rain = 0
KPG1 141424Z 06009KT 25/14 A2999 RMK A01 T02450141  RH  052%=      5-min Rain = 0
KPG1 141425Z 05008KT 25/14 A2999 RMK A01 T02450141  RH  052%=      5-min Rain = 0
KPG1 141426Z 05008KT 25/14 A2999 RMK A01 T02450142  RH  053%=      5-min Rain = 0
KPG1 141427Z 06008KT 25/14 A2999 RMK A01 T02460143  RH  053%=      5-min Rain = 0
KPG1 141428Z 06008KT 25/14 A2999 RMK A01 T02460143  RH  053%=      5-min Rain = 0
KPG1 141429Z 07007KT 25/14 A2999 RMK A01 T02470143  RH  052%=      5-min Rain = 0
KPG1 141430Z 06006KT 25/14 A2999 RMK A01 T02470143  RH  052%=      5-min Rain = 0
KPG1 141431Z 07007KT 25/14 A2999 RMK A01 T02470143  RH  052%=      5-min Rain = 0
KPG1 141432Z 06005KT 25/14 A2999 RMK A01 T02480144  RH  052%=      5-min Rain = 0
KPG1 141433Z 06006KT 25/14 A2999 RMK A01 T02490144  RH  052%=      5-min Rain = 0
KPG1 141434Z 04008KT 25/14 A2999 RMK A01 T02490144  RH  052%=      5-min Rain = 0
KPG1 141435Z 04008KT 25/15 A2999 RMK A01 T02490145  RH  052%=      5-min Rain = 0
KPG1 141436Z 03007KT 25/15 A2999 RMK A01 T02490145  RH  052%=      5-min Rain = 0
KPG1 141437Z 04008KT 25/15 A2999 RMK A01 T02500147  RH  053%=      5-min Rain = 0
KPG1 141438Z 04006KT 25/15 A30 RMK A01 T02510147  RH  053%=      5-min Rain = 0
KPG1 141439Z 05006KT 25/15 A30 RMK A01 T02510148  RH  053%=      5-min Rain = 0
KPG1 141440Z 04005KT 25/15 A30 RMK A01 T02520148  RH  053%=      5-min Rain = 0
KPG1 141441Z 04008KT 25/15 A30 RMK A01 T02540148  RH  052%=      5-min Rain = 0
KPG1 141442Z 04007KT 25/15 A2999 RMK A01 T02540148  RH  052%=      5-min Rain = 0
KPG1 141443Z 04007KT 25/15 A30 RMK A01 T02540148  RH  052%=      5-min Rain = 0
KPG1 141444Z 04008KT 26/15 A30 RMK A01 T02550148  RH  052%=      5-min Rain = 0
KPG1 141445Z 03008KT 25/15 A2999 RMK A01 T02540148  RH  052%=      5-min Rain = 0
KPG1 141446Z 04009KT 25/15 A2999 RMK A01 T02540148  RH  052%=      5-min Rain = 0
KPG1 141447Z 05007KT 25/15 A2999 RMK A01 T02540149  RH  052%=      5-min Rain = 0
KPG1 141448Z 06008KT 26/15 A2999 RMK A01 T02550149  RH  052%=      5-min Rain = 0
KPG1 141449Z 06008KT 26/15 A2999 RMK A01 T02560149  RH  052%=      5-min Rain = 0
KPG1 141450Z 06006KT 26/15 A2999 RMK A01 T02560149  RH  052%=      5-min Rain = 0
KPG1 141451Z 06007KT 26/15 A2999 RMK A01 T02570150  RH  052%=      5-min Rain = 0
KPG1 141452Z 06007KT 26/15 A2999 RMK A01 T02570149  RH  051%=      5-min Rain = 0
KPG1 141453Z 06007KT 26/15 A2999 RMK A01 T02570148  RH  051%=      5-min Rain = 0
KPG1 141454Z 06006KT 26/15 A2999 RMK A01 T02570149  RH  051%=      5-min Rain = 0
KPG1 141455Z 03006KT 26/15 A2999 RMK A01 T02580150  RH  051%=      5-min Rain = 0
KPG1 141456Z 05008KT 26/15 A2999 RMK A01 T02590149  RH  050%=      5-min Rain = 0
KPG1 141457Z 05007KT 26/15 A2999 RMK A01 T02600147  RH  050%=      5-min Rain = 0
KPG1 141458Z 05007KT 26/15 A2999 RMK A01 T02590147  RH  050%=      5-min Rain = 0
KPG1 141459Z 05008KT 26/15 A2999 RMK A01 T02580147  RH  050%=      5-min Rain = 0
KPG1 141500Z 06008KT 26/15 A2999 RMK A01 T02580147  RH  050%=      5-min Rain = 0
KPG1 141501Z 05008KT 26/15 A2999 RMK A01 T02580148  RH  050%=      5-min Rain = 0
KPG1 141502Z 05007KT 26/15 A2999 RMK A01 T02580147  RH  050%=      5-min Rain = 0
KPG1 141503Z 05007KT 26/15 A2999 RMK A01 T02570147  RH  051%=      5-min Rain = 0
KPG1 141504Z 06006KT 26/15 A2999 RMK A01 T02580148  RH  051%=      5-min Rain = 0
KPG1 141505Z 05005KT 26/15 A2999 RMK A01 T02590149  RH  051%=      5-min Rain = 0
KPG1 141506Z 05007KT 26/15 A2999 RMK A01 T02600149  RH  050%=      5-min Rain = 0
KPG1 141507Z 06007KT 26/15 A2999 RMK A01 T02600149  RH  050%=      5-min Rain = 0
KPG1 141508Z 06008KT 26/15 A2999 RMK A01 T02600149  RH  050%=      5-min Rain = 0
KPG1 141509Z 05007KT 26/15 A2999 RMK A01 T02590149  RH  050%=      5-min Rain = 0
KPG1 141510Z 06007KT 26/15 A2999 RMK A01 T02590149  RH  050%=      5-min Rain = 0
KPG1 141511Z 05006KT 26/15 A2999 RMK A01 T02600149  RH  050%=      5-min Rain = 0
KPG1 141512Z 05006KT 26/15 A2999 RMK A01 T02630150  RH  050%=      5-min Rain = 0
KPG1 141513Z 06006KT 27/15 A2999 RMK A01 T02650150  RH  049%=      5-min Rain = 0
KPG1 141514Z 06006KT 27/15 A2999 RMK A01 T02660149  RH  049%=      5-min Rain = 0
KPG1 141515Z 07006KT 27/15 A2999 RMK A01 T02660149  RH  049%=      5-min Rain = 0
KPG1 141516Z 05004KT 26/15 A2999 RMK A01 T02640148  RH  049%=      5-min Rain = 0
KPG1 141517Z 04005KT 26/15 A2999 RMK A01 T02620148  RH  049%=      5-min Rain = 0
KPG1 141518Z 06006KT 26/15 A2999 RMK A01 T02630147  RH  049%=      5-min Rain = 0
KPG1 141519Z 05005KT 26/15 A2999 RMK A01 T02630147  RH  049%=      5-min Rain = 0
KPG1 141520Z 04005KT 26/15 A2999 RMK A01 T02630146  RH  049%=      5-min Rain = 0
KPG1 141521Z 04005KT 27/15 A2999 RMK A01 T02660149  RH  048%=      5-min Rain = 0
KPG1 141522Z 04005KT 27/15 A2999 RMK A01 T02710149  RH  047%=      5-min Rain = 0
KPG1 141523Z 03006KT 28/15 A2999 RMK A01 T02750149  RH  046%=      5-min Rain = 0
KPG1 141524Z 03006KT 28/15 A2999 RMK A01 T02750147  RH  046%=      5-min Rain = 0
KPG1 141525Z 04006KT 28/15 A2999 RMK A01 T02750148  RH  046%=      5-min Rain = 0
KPG1 141526Z 05006KT 28/15 A2999 RMK A01 T02750148  RH  046%=      5-min Rain = 0
KPG1 141527Z 05007KT 28/15 A2999 RMK A01 T02750148  RH  046%=      5-min Rain = 0
KPG1 141528Z 05006KT 28/15 A2999 RMK A01 T02750147  RH  045%=      5-min Rain = 0
KPG1 141529Z 05006KT 28/15 A2999 RMK A01 T02750148  RH  046%=      5-min Rain = 0
KPG1 141530Z 05007KT 27/15 A2999 RMK A01 T02740147  RH  046%=      5-min Rain = 0
KPG1 141531Z 06007KT 27/15 A2999 RMK A01 T02730146  RH  046%=      5-min Rain = 0
KPG1 141532Z 06007KT 27/15 A2999 RMK A01 T02730147  RH  046%=      5-min Rain = 0
KPG1 141533Z 06007KT 27/15 A2999 RMK A01 T02720145  RH  046%=      5-min Rain = 0
KPG1 141534Z 06007KT 27/15 A2999 RMK A01 T02700145  RH  046%=      5-min Rain = 0
KPG1 141535Z 05006KT 27/15 A2999 RMK A01 T02690145  RH  046%=      5-min Rain = 0
KPG1 141536Z 05005KT 27/14 A2999 RMK A01 T02700143  RH  046%=      5-min Rain = 0
KPG1 141537Z 05006KT 27/15 A2999 RMK A01 T02720146  RH  046%=      5-min Rain = 0
KPG1 141538Z 04006KT 27/15 A2999 RMK A01 T02740147  RH  046%=      5-min Rain = 0
KPG1 141539Z 04005KT 28/15 A2999 RMK A01 T02750147  RH  046%=      5-min Rain = 0
KPG1 141540Z 03005KT 27/15 A2999 RMK A01 T02740147  RH  046%=      5-min Rain = 0
KPG1 141541Z 04003KT 27/15 A2999 RMK A01 T02730147  RH  046%=      5-min Rain = 0
KPG1 141542Z 02005KT 27/15 A2999 RMK A01 T02740146  RH  046%=      5-min Rain = 0
KPG1 141543Z 03005KT 28/15 A2999 RMK A01 T02750147  RH  045%=      5-min Rain = 0
KPG1 141544Z 04005KT 28/15 A2999 RMK A01 T02760148  RH  045%=      5-min Rain = 0
KPG1 141545Z 04007KT 28/15 A2999 RMK A01 T02770147  RH  045%=      5-min Rain = 0
KPG1 141546Z 05006KT 28/15 A2999 RMK A01 T02760146  RH  045%=      5-min Rain = 0
KPG1 141547Z 06007KT 28/15 A2999 RMK A01 T02750146  RH  045%=      5-min Rain = 0
KPG1 141548Z 06007KT 28/15 A2999 RMK A01 T02750148  RH  046%=      5-min Rain = 0
KPG1 141549Z 05006KT 28/15 A2999 RMK A01 T02760148  RH  045%=      5-min Rain = 0
KPG1 141550Z 05007KT 28/15 A2999 RMK A01 T02760148  RH  046%=      5-min Rain = 0
KPG1 141551Z 05008KT 28/15 A2999 RMK A01 T02750148  RH  046%=      5-min Rain = 0
KPG1 141552Z 06006KT 28/15 A2999 RMK A01 T02750148  RH  046%=      5-min Rain = 0
KPG1 141553Z 05006KT 28/15 A2999 RMK A01 T02750148  RH  046%=      5-min Rain = 0
KPG1 141554Z 06007KT 28/15 A2999 RMK A01 T02760150  RH  046%=      5-min Rain = 0
KPG1 141555Z 06008KT 28/15 A2999 RMK A01 T02770150  RH  046%=      5-min Rain = 0
KPG1 141556Z 05008KT 28/15 A2999 RMK A01 T02760149  RH  046%=      5-min Rain = 0
KPG1 141557Z 06010KT 28/15 A2999 RMK A01 T02760149  RH  046%=      5-min Rain = 0
KPG1 141558Z 06009KT 28/15 A2999 RMK A01 T02760149  RH  046%=      5-min Rain = 0
KPG1 141559Z 07009KT 28/15 A2999 RMK A01 T02760149  RH  046%=      5-min Rain = 0
KPG1 141600Z 08008KT 28/15 A2999 RMK A01 T02760148  RH  046%=      5-min Rain = 0
KPG1 141601Z 08006KT 28/15 A2999 RMK A01 T02750147  RH  045%=      5-min Rain = 0
KPG1 141602Z 08007KT 28/15 A2999 RMK A01 T02750147  RH  045%=      5-min Rain = 0
KPG1 141603Z 08006KT 28/15 A2999 RMK A01 T02750146  RH  045%=      5-min Rain = 0
KPG1 141604Z 05009KT 28/15 A2999 RMK A01 T02770148  RH  045%=      5-min Rain = 0
KPG1 141605Z 06010KT 28/15 A2999 RMK A01 T02780148  RH  045%=      5-min Rain = 0
KPG1 141606Z 06009KT 28/15 A2999 RMK A01 T02780148  RH  045%=      5-min Rain = 0
KPG1 141607Z 07007KT 28/15 A2999 RMK A01 T02770147  RH  045%=      5-min Rain = 0
KPG1 141608Z 06006KT 27/15 A2999 RMK A01 T02740147  RH  046%=      5-min Rain = 0
KPG1 141609Z 05006KT 28/15 A2999 RMK A01 T02750148  RH  046%=      5-min Rain = 0
KPG1 141610Z 06007KT 28/15 A2999 RMK A01 T02790148  RH  045%=      5-min Rain = 0
KPG1 141611Z 07007KT 28/15 A2999 RMK A01 T02800148  RH  045%=      5-min Rain = 0
KPG1 141612Z 07009KT 28/15 A2999 RMK A01 T02790147  RH  044%=      5-min Rain = 0
KPG1 141613Z 06008KT 28/15 A2999 RMK A01 T02800147  RH  044%=      5-min Rain = 0
KPG1 141614Z 07008KT 28/15 A2999 RMK A01 T02800147  RH  044%=      5-min Rain = 0
KPG1 141615Z 09008KT 28/15 A2999 RMK A01 T02810146  RH  044%=      5-min Rain = 0
KPG1 141616Z 07007KT 28/15 A2999 RMK A01 T02810146  RH  044%=      5-min Rain = 0
KPG1 141617Z 05009KT 28/15 A2999 RMK A01 T02830147  RH  044%=      5-min Rain = 0
KPG1 141618Z 08010KT 28/15 A2999 RMK A01 T02840147  RH  043%=      5-min Rain = 0
KPG1 141619Z 09009KT 28/15 A2999 RMK A01 T02800146  RH  044%=      5-min Rain = 0
KPG1 141620Z 09007KT 28/15 A30 RMK A01 T02790146  RH  044%=      5-min Rain = 0
KPG1 141621Z 09010KT 28/15 A30 RMK A01 T02790146  RH  044%=      5-min Rain = 0
KPG1 141622Z 09007KT 28/15 A30 RMK A01 T02790146  RH  044%=      5-min Rain = 0
KPG1 141623Z 08006KT 28/15 A30 RMK A01 T02790145  RH  044%=      5-min Rain = 0
KPG1 141624Z 07006KT 28/15 A30 RMK A01 T02820146  RH  044%=      5-min Rain = 0
KPG1 141625Z 05007KT 28/15 A30 RMK A01 T02830146  RH  043%=      5-min Rain = 0
KPG1 141626Z 06008KT 28/15 A30 RMK A01 T02830146  RH  043%=      5-min Rain = 0
KPG1 141627Z 06009KT 28/15 A30 RMK A01 T02830146  RH  043%=      5-min Rain = 0
KPG1 141628Z 06007KT 28/15 A30 RMK A01 T02840147  RH  043%=      5-min Rain = 0
KPG1 141629Z 06009KT 29/15 A30 RMK A01 T02870148  RH  043%=      5-min Rain = 0
KPG1 141630Z 06008KT 29/15 A30 RMK A01 T02870147  RH  042%=      5-min Rain = 0
KPG1 141631Z 06008KT 29/15 A30 RMK A01 T02850146  RH  043%=      5-min Rain = 0
KPG1 141632Z 06007KT 28/15 A30 RMK A01 T02820146  RH  043%=      5-min Rain = 0
KPG1 141633Z 08005KT 28/15 A30 RMK A01 T02810146  RH  044%=      5-min Rain = 0
KPG1 141634Z 04007KT 28/15 A30 RMK A01 T02800146  RH  044%=      5-min Rain = 0
KPG1 141635Z 03006KT 28/15 A2999 RMK A01 T02800145  RH  044%=      5-min Rain = 0
KPG1 141636Z 04007KT 28/15 A2999 RMK A01 T02800146  RH  044%=      5-min Rain = 0
KPG1 141637Z 02008KT 28/15 A2999 RMK A01 T02820146  RH  044%=      5-min Rain = 0
KPG1 141638Z 03008KT 28/15 A2999 RMK A01 T02840146  RH  043%=      5-min Rain = 0
KPG1 141639Z 03009KT 29/15 A2999 RMK A01 T02860146  RH  042%=      5-min Rain = 0
KPG1 141640Z 03010KT 29/15 A2999 RMK A01 T02880145  RH  042%=      5-min Rain = 0
KPG1 141641Z 04007KT 29/15 A2999 RMK A01 T02870145  RH  042%=      5-min Rain = 0
KPG1 141642Z 07008KT 29/15 A2999 RMK A01 T02880145  RH  042%=      5-min Rain = 0
KPG1 141643Z 04007KT 29/14 A2999 RMK A01 T02900144  RH  041%=      5-min Rain = 0
KPG1 141644Z 04008KT 29/15 A2999 RMK A01 T02910145  RH  041%=      5-min Rain = 0
KPG1 141645Z 02006KT 29/14 A2999 RMK A01 T02900144  RH  041%=      5-min Rain = 0
KPG1 141646Z 03008KT 29/15 A2999 RMK A01 T02910145  RH  041%=      5-min Rain = 0
KPG1 141647Z 02006KT 29/14 A2999 RMK A01 T02900144  RH  041%=      5-min Rain = 0
KPG1 141648Z 02004KT 29/14 A2999 RMK A01 T02890144  RH  041%=      5-min Rain = 0
KPG1 141649Z 02007KT 29/14 A2999 RMK A01 T02890144  RH  041%=      5-min Rain = 0
KPG1 141650Z 03007KT 29/15 A2999 RMK A01 T02900145  RH  041%=      5-min Rain = 0
KPG1 141651Z 05006KT 29/15 A2999 RMK A01 T02930146  RH  041%=      5-min Rain = 0
KPG1 141652Z 07009KT 30/15 A2999 RMK A01 T02970148  RH  040%=      5-min Rain = 0
KPG1 141653Z 07009KT 30/15 A2999 RMK A01 T02960150  RH  041%=      5-min Rain = 0
KPG1 141654Z 07009KT 29/15 A2999 RMK A01 T02930149  RH  042%=      5-min Rain = 0
KPG1 141655Z 07011KT 29/15 A2999 RMK A01 T02900149  RH  042%=      5-min Rain = 0
KPG1 141656Z 07010KT 29/15 A2999 RMK A01 T02900150  RH  042%=      5-min Rain = 0
KPG1 141657Z 08010KT 29/15 A2999 RMK A01 T02890149  RH  042%=      5-min Rain = 0
KPG1 141658Z 06007KT 29/15 A2999 RMK A01 T02880149  RH  043%=      5-min Rain = 0
KPG1 141659Z 07005KT 29/15 A2999 RMK A01 T02870149  RH  043%=      5-min Rain = 0
KPG1 141700Z 07008KT 29/15 A2999 RMK A01 T02870149  RH  043%=      5-min Rain = 0
KPG1 141701Z 05007KT 29/15 A2999 RMK A01 T02870149  RH  043%=      5-min Rain = 0
KPG1 141702Z 04007KT 29/15 A2999 RMK A01 T02860149  RH  043%=      5-min Rain = 0
KPG1 141703Z 07010KT 29/15 A2999 RMK A01 T02880150  RH  043%=      5-min Rain = 0
KPG1 141704Z 07009KT 29/15 A2999 RMK A01 T02900150  RH  043%=      5-min Rain = 0
KPG1 141705Z 07007KT 29/15 A2999 RMK A01 T02900150  RH  042%=      5-min Rain = 0
KPG1 141706Z 04007KT 29/15 A2999 RMK A01 T02900150  RH  043%=      5-min Rain = 0
KPG1 141707Z 04008KT 29/15 A2999 RMK A01 T02920151  RH  042%=      5-min Rain = 0
KPG1 141708Z 02009KT 30/15 A2999 RMK A01 T02960152  RH  042%=      5-min Rain = 0
KPG1 141709Z 04010KT 30/15 A2999 RMK A01 T02960150  RH  041%=      5-min Rain = 0
KPG1 141710Z 06010KT 29/15 A2999 RMK A01 T02920150  RH  042%=      5-min Rain = 0
KPG1 141711Z 07011KT 29/15 A2999 RMK A01 T02890150  RH  043%=      5-min Rain = 0
KPG1 141712Z 07011KT 29/15 A2999 RMK A01 T02890150  RH  043%=      5-min Rain = 0
KPG1 141713Z 06009KT 29/15 A2999 RMK A01 T02870149  RH  043%=      5-min Rain = 0
KPG1 141714Z 07009KT 29/15 A2999 RMK A01 T02860149  RH  043%=      5-min Rain = 0
KPG1 141715Z 08009KT 29/15 A2999 RMK A01 T02880148  RH  043%=      5-min Rain = 0
KPG1 141716Z 07007KT 29/15 A2999 RMK A01 T02890148  RH  042%=      5-min Rain = 0
KPG1 141717Z 05006KT 29/15 A2999 RMK A01 T02910148  RH  042%=      5-min Rain = 0
KPG1 141718Z 08010KT 29/15 A2999 RMK A01 T02930148  RH  041%=      5-min Rain = 0
KPG1 141719Z 07010KT 29/15 A2999 RMK A01 T02940147  RH  041%=      5-min Rain = 0
KPG1 141720Z 06009KT 29/15 A2999 RMK A01 T02930148  RH  041%=      5-min Rain = 0
KPG1 141721Z 07008KT 29/15 A2999 RMK A01 T02920147  RH  041%=      5-min Rain = 0
KPG1 141722Z 07008KT 29/15 A2998 RMK A01 T02920147  RH  041%=      5-min Rain = 0
KPG1 141723Z 05006KT 30/15 A2998 RMK A01 T02950150  RH  041%=      5-min Rain = 0
KPG1 141724Z 05009KT 30/15 A2998 RMK A01 T03010150  RH  040%=      5-min Rain = 0
KPG1 141725Z 05011KT 30/15 A2998 RMK A01 T03020149  RH  040%=      5-min Rain = 0
KPG1 141726Z 03008KT 30/15 A2998 RMK A01 T03010149  RH  040%=      5-min Rain = 0
KPG1 141727Z 03009KT 30/15 A2998 RMK A01 T03040149  RH  039%=      5-min Rain = 0
KPG1 141728Z 03010KT 31/15 A2998 RMK A01 T03060148  RH  038%=      5-min Rain = 0
KPG1 141729Z 04010KT 30/15 A2998 RMK A01 T03040147  RH  038%=      5-min Rain = 0
KPG1 141730Z 05009KT 30/15 A2998 RMK A01 T03000146  RH  039%=      5-min Rain = 0
KPG1 141731Z 06008KT 30/15 A2998 RMK A01 T03010147  RH  039%=      5-min Rain = 0
KPG1 141732Z 03005KT 30/15 A2998 RMK A01 T03030148  RH  039%=      5-min Rain = 0
KPG1 141733Z 03006KT 30/15 A2998 RMK A01 T03040149  RH  039%=      5-min Rain = 0
KPG1 141734Z 06009KT 30/15 A2998 RMK A01 T03010149  RH  040%=      5-min Rain = 0
KPG1 141735Z 08010KT 30/15 A2998 RMK A01 T03000149  RH  040%=      5-min Rain = 0
KPG1 141736Z 07009KT 30/15 A2998 RMK A01 T03010148  RH  040%=      5-min Rain = 0
KPG1 141737Z 07009KT 30/15 A2998 RMK A01 T03010148  RH  039%=      5-min Rain = 0
KPG1 141738Z 06011KT 30/15 A2998 RMK A01 T03020150  RH  040%=      5-min Rain = 0
KPG1 141739Z 06011KT 30/15 A2998 RMK A01 T03020150  RH  040%=      5-min Rain = 0
KPG1 141740Z 07011KT 30/15 A2998 RMK A01 T03010149  RH  040%=      5-min Rain = 0
KPG1 141741Z 07011KT 30/15 A2998 RMK A01 T02970148  RH  040%=      5-min Rain = 0
KPG1 141742Z 06010KT 30/15 A2998 RMK A01 T02950148  RH  041%=      5-min Rain = 0
KPG1 141743Z 07011KT 30/15 A2998 RMK A01 T02950149  RH  041%=      5-min Rain = 0
KPG1 141744Z 07009KT 30/15 A2998 RMK A01 T02950148  RH  041%=      5-min Rain = 0
KPG1 141745Z 04008KT 30/15 A2998 RMK A01 T02950148  RH  041%=      5-min Rain = 0
KPG1 141746Z 06006KT 30/15 A2998 RMK A01 T02990148  RH  040%=      5-min Rain = 0
KPG1 141747Z 06004KT 30/15 A2997 RMK A01 T02990147  RH  040%=      5-min Rain = 0
KPG1 141748Z 07005KT 30/15 A2997 RMK A01 T03000148  RH  040%=      5-min Rain = 0
KPG1 141749Z 07010G16KT 31/15 A2997 RMK A01 T03050148  RH  038%=      5-min Rain = 0
KPG1 141750Z 07007KT 31/15 A2997 RMK A01 T03080147  RH  038%=      5-min Rain = 0
KPG1 141751Z 07010KT 31/15 A2997 RMK A01 T03080146  RH  037%=      5-min Rain = 0
KPG1 141752Z 07010KT 31/15 A2997 RMK A01 T03090146  RH  037%=      5-min Rain = 0
KPG1 141753Z 06006KT 31/15 A2997 RMK A01 T03070145  RH  037%=      5-min Rain = 0
KPG1 141754Z 08007G13KT 30/15 A2997 RMK A01 T03040145  RH  038%=      5-min Rain = 0
KPG1 141755Z 07010KT 31/15 A2997 RMK A01 T03050145  RH  038%=      5-min Rain = 0
KPG1 141756Z 07010KT 30/15 A2997 RMK A01 T03030145  RH  038%=      5-min Rain = 0
KPG1 141757Z 07008KT 30/14 A2997 RMK A01 T03010144  RH  038%=      5-min Rain = 0
KPG1 141758Z 03007KT 30/14 A2997 RMK A01 T03000144  RH  039%=      5-min Rain = 0
KPG1 141759Z 03008KT 30/14 A2997 RMK A01 T03010144  RH  038%=      5-min Rain = 0
KPG1 141800Z 03007G12KT 31/15 A2997 RMK A01 T03060145  RH  038%=      5-min Rain = 0
KPG1 141801Z 08010KT 31/15 A2997 RMK A01 T03100145  RH  037%=      5-min Rain = 0
KPG1 141802Z 07008KT 31/15 A2997 RMK A01 T03090145  RH  037%=      5-min Rain = 0
KPG1 141803Z 06009KT 31/14 A2997 RMK A01 T03060144  RH  037%=      5-min Rain = 0
KPG1 141804Z 06010KT 31/14 A2997 RMK A01 T03050143  RH  037%=      5-min Rain = 0
KPG1 141805Z 06007KT 30/14 A2997 RMK A01 T03020142  RH  038%=      5-min Rain = 0
KPG1 141806Z 04006KT 30/14 A2997 RMK A01 T03000141  RH  038%=      5-min Rain = 0
KPG1 141807Z 05004KT 30/14 A2997 RMK A01 T02990141  RH  038%=      5-min Rain = 0
KPG1 141808Z 07006KT 30/14 A2997 RMK A01 T02980142  RH  038%=      5-min Rain = 0
KPG1 141809Z 05004KT 30/14 A2997 RMK A01 T02980142  RH  039%=      5-min Rain = 0
KPG1 141810Z 13001KT 30/14 A2996 RMK A01 T02990143  RH  039%=      5-min Rain = 0
KPG1 141811Z 03004KT 30/15 A2996 RMK A01 T03020145  RH  038%=      5-min Rain = 0
KPG1 141812Z 03007KT 31/15 A2996 RMK A01 T03080146  RH  037%=      5-min Rain = 0
KPG1 141813Z 05006KT 31/15 A2996 RMK A01 T03110145  RH  037%=      5-min Rain = 0
KPG1 141814Z 05005KT 31/15 A2996 RMK A01 T03100145  RH  037%=      5-min Rain = 0
KPG1 141815Z 06010KT 31/15 A2996 RMK A01 T03140145  RH  036%=      5-min Rain = 0
KPG1 141816Z 05010KT 32/14 A2996 RMK A01 T03150144  RH  035%=      5-min Rain = 0
KPG1 141817Z 05009KT 32/14 A2996 RMK A01 T03160143  RH  035%=      5-min Rain = 0
KPG1 141818Z 05006KT 32/14 A2996 RMK A01 T03150144  RH  035%=      5-min Rain = 0
KPG1 141819Z 05009KT 32/14 A2996 RMK A01 T03150143  RH  035%=      5-min Rain = 0
KPG1 141820Z 04010KT 31/14 A2996 RMK A01 T03140142  RH  035%=      5-min Rain = 0
KPG1 141821Z 06008KT 31/14 A2996 RMK A01 T03100141  RH  036%=      5-min Rain = 0
KPG1 141822Z 05008KT 31/14 A2996 RMK A01 T03090141  RH  036%=      5-min Rain = 0
KPG1 141823Z 05003KT 31/14 A2996 RMK A01 T03070140  RH  036%=      5-min Rain = 0
KPG1 141824Z 04007KT 31/14 A2996 RMK A01 T03060140  RH  036%=      5-min Rain = 0
KPG1 141825Z 04006KT 31/14 A2996 RMK A01 T03080140  RH  036%=      5-min Rain = 0
KPG1 141826Z 05009KT 31/14 A2996 RMK A01 T03090141  RH  036%=      5-min Rain = 0
KPG1 141827Z 06009KT 31/14 A2996 RMK A01 T03100141  RH  036%=      5-min Rain = 0
KPG1 141828Z 05005KT 31/14 A2996 RMK A01 T03070141  RH  036%=      5-min Rain = 0
KPG1 141829Z 04006KT 31/14 A2996 RMK A01 T03060141  RH  037%=      5-min Rain = 0
KPG1 141830Z 02004KT 31/14 A2995 RMK A01 T03060142  RH  037%=      5-min Rain = 0
KPG1 141831Z 03005KT 31/14 A2995 RMK A01 T03060143  RH  037%=      5-min Rain = 0
KPG1 141832Z 04010G15KT 31/14 A2995 RMK A01 T03070143  RH  037%=      5-min Rain = 0
KPG1 141833Z 05011KT 31/14 A2995 RMK A01 T03100142  RH  036%=      5-min Rain = 0
KPG1 141834Z 05008KT 31/14 A2995 RMK A01 T03080141  RH  036%=      5-min Rain = 0
KPG1 141835Z 08007KT 31/14 A2995 RMK A01 T03060142  RH  037%=      5-min Rain = 0
KPG1 141836Z 08009KT 31/14 A2995 RMK A01 T03090144  RH  037%=      5-min Rain = 0
KPG1 141837Z 09007KT 31/14 A2995 RMK A01 T03110144  RH  036%=      5-min Rain = 0
KPG1 141838Z 09008KT 31/14 A2995 RMK A01 T03120143  RH  036%=      5-min Rain = 0
KPG1 141839Z 10008KT 31/14 A2995 RMK A01 T03140141  RH  035%=      5-min Rain = 0
KPG1 141840Z 08007KT 31/14 A2995 RMK A01 T03140140  RH  035%=      5-min Rain = 0
KPG1 141841Z 10007KT 31/14 A2995 RMK A01 T03120139  RH  035%=      5-min Rain = 0
KPG1 141842Z 10006KT 31/14 A2995 RMK A01 T03130139  RH  035%=      5-min Rain = 0
KPG1 141843Z 08007KT 32/14 A2994 RMK A01 T03160139  RH  034%=      5-min Rain = 0
KPG1 141844Z 09006KT 32/14 A2994 RMK A01 T03190139  RH  033%=      5-min Rain = 0
KPG1 141845Z 07006KT 32/14 A2994 RMK A01 T03210139  RH  033%=      5-min Rain = 0
KPG1 141846Z 08008KT 32/14 A2994 RMK A01 T03210138  RH  033%=      5-min Rain = 0
KPG1 141847Z 07009KT 32/14 A2994 RMK A01 T03180137  RH  033%=      5-min Rain = 0
KPG1 141848Z 07010KT 32/14 A2994 RMK A01 T03160137  RH  034%=      5-min Rain = 0
KPG1 141849Z 08010KT 32/14 A2994 RMK A01 T03170137  RH  033%=      5-min Rain = 0
KPG1 141850Z 08008KT 32/14 A2994 RMK A01 T03180138  RH  034%=      5-min Rain = 0
KPG1 141851Z 06006KT 32/14 A2994 RMK A01 T03180139  RH  034%=      5-min Rain = 0
KPG1 141852Z 04003KT 32/14 A2994 RMK A01 T03160140  RH  034%=      5-min Rain = 0
KPG1 141853Z 32002KT 31/14 A2994 RMK A01 T03120140  RH  035%=      5-min Rain = 0
KPG1 141854Z 10001KT 31/14 A2994 RMK A01 T03120140  RH  035%=      5-min Rain = 0
KPG1 141855Z 13001KT 31/14 A2994 RMK A01 T03110140  RH  035%=      5-min Rain = 0
KPG1 141856Z 11004KT 31/14 A2994 RMK A01 T03130140  RH  035%=      5-min Rain = 0
KPG1 141857Z 10006KT 32/14 A2994 RMK A01 T03170139  RH  034%=      5-min Rain = 0
KPG1 141858Z 09007KT 32/14 A2994 RMK A01 T03210135  RH  032%=      5-min Rain = 0
KPG1 141859Z 10006KT 32/13 A2994 RMK A01 T03190133  RH  032%=      5-min Rain = 0
KPG1 141900Z 09006KT 32/13 A2994 RMK A01 T03170132  RH  032%=      5-min Rain = 0
KPG1 141901Z 14005KT 31/13 A2994 RMK A01 T03140132  RH  033%=      5-min Rain = 0
KPG1 141902Z 16004KT 31/13 A2994 RMK A01 T03140134  RH  033%=      5-min Rain = 0
KPG1 141903Z 04005KT 32/14 A2994 RMK A01 T03180137  RH  033%=      5-min Rain = 0
KPG1 141904Z 05005KT 32/14 A2994 RMK A01 T03200138  RH  033%=      5-min Rain = 0
KPG1 141905Z 04006KT 32/14 A2994 RMK A01 T03190138  RH  033%=      5-min Rain = 0
KPG1 141906Z 03006KT 32/14 A2994 RMK A01 T03200140  RH  034%=      5-min Rain = 0
KPG1 141907Z 06006KT 32/14 A2994 RMK A01 T03200141  RH  034%=      5-min Rain = 0
KPG1 141908Z 06006KT 32/14 A2994 RMK A01 T03210142  RH  034%=      5-min Rain = 0
KPG1 141909Z 08003KT 32/14 A2994 RMK A01 T03210142  RH  034%=      5-min Rain = 0
KPG1 141910Z 11005G10KT 32/14 A2994 RMK A01 T03210141  RH  033%=      5-min Rain = 0
KPG1 141911Z 09005KT 33/13 A2994 RMK A01 T03250133  RH  031%=      5-min Rain = 0
KPG1 141912Z 08007KT 33/13 A2994 RMK A01 T03260132  RH  031%=      5-min Rain = 0
KPG1 141913Z 08009KT 33/13 A2993 RMK A01 T03290131  RH  030%=      5-min Rain = 0
KPG1 141914Z 11010KT 33/13 A2993 RMK A01 T03310129  RH  030%=      5-min Rain = 0
KPG1 141915Z 13006KT 33/13 A2993 RMK A01 T03300125  RH  029%=      5-min Rain = 0
KPG1 141916Z 14003KT 33/13 A2993 RMK A01 T03300125  RH  029%=      5-min Rain = 0
KPG1 141917Z 13005KT 33/13 A2993 RMK A01 T03290127  RH  029%=      5-min Rain = 0
KPG1 141918Z 11006KT 33/13 A2993 RMK A01 T03320131  RH  030%=      5-min Rain = 0
KPG1 141919Z 09005KT 33/14 A2993 RMK A01 T03330138  RH  031%=      5-min Rain = 0
KPG1 141920Z 13008KT 33/14 A2993 RMK A01 T03290135  RH  031%=      5-min Rain = 0
KPG1 141921Z 11006KT 33/13 A2993 RMK A01 T03280132  RH  030%=      5-min Rain = 0
KPG1 141922Z 09004G9KT 33/14 A2993 RMK A01 T03320137  RH  031%=      5-min Rain = 0
KPG1 141923Z 08002KT 33/14 A2993 RMK A01 T03290139  RH  032%=      5-min Rain = 0
KPG1 141924Z 07006KT 33/14 A2993 RMK A01 T03300139  RH  032%=      5-min Rain = 0
KPG1 141925Z 10008KT 34/13 A2993 RMK A01 T03350134  RH  030%=      5-min Rain = 0
KPG1 141926Z 11005KT 33/13 A2993 RMK A01 T03330128  RH  029%=      5-min Rain = 0
KPG1 141927Z 12007KT 33/13 A2993 RMK A01 T03300128  RH  029%=      5-min Rain = 0
KPG1 141928Z 14010KT 33/13 A2993 RMK A01 T03320125  RH  028%=      5-min Rain = 0
KPG1 141929Z 15009KT 33/12 A2993 RMK A01 T03340123  RH  028%=      5-min Rain = 0
KPG1 141930Z 18012KT 33/12 A2993 RMK A01 T03330123  RH  028%=      5-min Rain = 0
KPG1 141931Z 21004G14KT 33/13 A2993 RMK A01 T03310125  RH  028%=      5-min Rain = 0
KPG1 141932Z 28003KT 33/13 A2993 RMK A01 T03280125  RH  029%=      5-min Rain = 0
KPG1 141933Z 29002KT 32/13 A2993 RMK A01 T03240125  RH  030%=      5-min Rain = 0
KPG1 141934Z 32002KT 32/13 A2993 RMK A01 T03230127  RH  030%=      5-min Rain = 0
KPG1 141935Z 16004KT 33/13 A2993 RMK A01 T03250125  RH  030%=      5-min Rain = 0
KPG1 141936Z 16006KT 33/12 A2993 RMK A01 T03290120  RH  028%=      5-min Rain = 0
KPG1 141937Z 16006KT 33/12 A2992 RMK A01 T03320120  RH  028%=      5-min Rain = 0
KPG1 141938Z 14008KT 33/12 A2992 RMK A01 T03340120  RH  027%=      5-min Rain = 0
KPG1 141939Z 14009KT 34/12 A2993 RMK A01 T03380122  RH  027%=      5-min Rain = 0
KPG1 141940Z 14010KT 34/12 A2992 RMK A01 T03370120  RH  027%=      5-min Rain = 0
KPG1 141941Z 12010KT 34/12 A2992 RMK A01 T03350120  RH  027%=      5-min Rain = 0
KPG1 141942Z 13006KT 33/12 A2992 RMK A01 T03340123  RH  028%=      5-min Rain = 0
KPG1 141943Z 12003KT 34/12 A2992 RMK A01 T03370123  RH  027%=      5-min Rain = 0
KPG1 141944Z 18004KT 34/12 A2992 RMK A01 T03390121  RH  027%=      5-min Rain = 0
KPG1 141945Z 12004G10KT 34/12 A2992 RMK A01 T03390121  RH  027%=      5-min Rain = 0
KPG1 141946Z 13006KT 34/12 A2992 RMK A01 T03380121  RH  027%=      5-min Rain = 0
KPG1 141947Z 15007KT 34/12 A2992 RMK A01 T03360122  RH  027%=      5-min Rain = 0
KPG1 141948Z 16010KT 34/12 A2992 RMK A01 T03420123  RH  027%=      5-min Rain = 0
KPG1 141949Z 15007KT 34/12 A2992 RMK A01 T03390123  RH  027%=      5-min Rain = 0
KPG1 141950Z 14006KT 34/12 A2992 RMK A01 T03360123  RH  027%=      5-min Rain = 0
KPG1 141951Z 16005KT 33/12 A2992 RMK A01 T03340124  RH  028%=      5-min Rain = 0
KPG1 141952Z 20005KT 33/12 A2991 RMK A01 T03320124  RH  028%=      5-min Rain = 0
KPG1 141953Z 18006KT 33/13 A2991 RMK A01 T03280125  RH  029%=      5-min Rain = 0
KPG1 141954Z 16004KT 33/13 A2991 RMK A01 T03270127  RH  030%=      5-min Rain = 0
KPG1 141955Z 10006KT 33/13 A2991 RMK A01 T03270127  RH  030%=      5-min Rain = 0
KPG1 141956Z 08009KT 33/13 A2991 RMK A01 T03270128  RH  030%=      5-min Rain = 0
KPG1 141957Z 08009KT 33/13 A2991 RMK A01 T03260128  RH  030%=      5-min Rain = 0
KPG1 141958Z 06007KT 33/13 A2991 RMK A01 T03260128  RH  030%=      5-min Rain = 0
KPG1 141959Z 06007KT 33/13 A2991 RMK A01 T03250129  RH  030%=      5-min Rain = 0
KPG1 142000Z 05008KT 33/13 A299 RMK A01 T03260127  RH  030%=      5-min Rain = 0
KPG1 142001Z 05005KT 33/13 A299 RMK A01 T03250125  RH  030%=      5-min Rain = 0
KPG1 142002Z 04006KT 32/13 A299 RMK A01 T03240126  RH  030%=      5-min Rain = 0
KPG1 142003Z 03007G12KT 33/13 A299 RMK A01 T03260125  RH  029%=      5-min Rain = 0
KPG1 142004Z 04013KT 33/13 A2989 RMK A01 T03290128  RH  029%=      5-min Rain = 0
KPG1 142005Z 05012KT 33/13 A2989 RMK A01 T03290126  RH  029%=      5-min Rain = 0
KPG1 142006Z 08009KT 33/13 A299 RMK A01 T03290127  RH  029%=      5-min Rain = 0
KPG1 142007Z 08006KT 33/13 A299 RMK A01 T03290127  RH  029%=      5-min Rain = 0
KPG1 142008Z 09005KT 33/13 A299 RMK A01 T03290127  RH  029%=      5-min Rain = 0
KPG1 142009Z 13007KT 33/12 A299 RMK A01 T03300121  RH  028%=      5-min Rain = 0
KPG1 142010Z 13008KT 33/12 A299 RMK A01 T03300119  RH  028%=      5-min Rain = 0
KPG1 142011Z 13008KT 33/12 A299 RMK A01 T03290121  RH  028%=      5-min Rain = 0
KPG1 142012Z 15006KT 33/12 A299 RMK A01 T03280121  RH  028%=      5-min Rain = 0
KPG1 142013Z 14008KT 33/12 A299 RMK A01 T03280121  RH  028%=      5-min Rain = 0
KPG1 142014Z 14007KT 33/12 A299 RMK A01 T03300119  RH  028%=      5-min Rain = 0
KPG1 142015Z 11006G11KT 33/12 A299 RMK A01 T03300119  RH  028%=      5-min Rain = 0
KPG1 142016Z 11003KT 33/12 A299 RMK A01 T03280119  RH  028%=      5-min Rain = 0
KPG1 142017Z 26002KT 33/12 A299 RMK A01 T03270119  RH  028%=      5-min Rain = 0
KPG1 142018Z 25003KT 33/12 A299 RMK A01 T03250119  RH  028%=      5-min Rain = 0
KPG1 142019Z 09003KT 33/12 A299 RMK A01 T03250120  RH  029%=      5-min Rain = 0
KPG1 142020Z 02007KT 33/12 A299 RMK A01 T03250123  RH  029%=      5-min Rain = 0
KPG1 142021Z 36005KT 32/13 A299 RMK A01 T03240127  RH  030%=      5-min Rain = 0
KPG1 142022Z 00007KT 32/13 A299 RMK A01 T03230127  RH  030%=      5-min Rain = 0
KPG1 142023Z 04005KT 32/13 A299 RMK A01 T03230127  RH  030%=      5-min Rain = 0
KPG1 142024Z 09009G14KT 32/13 A299 RMK A01 T03240127  RH  030%=      5-min Rain = 0
KPG1 142025Z 10012KT 33/13 A299 RMK A01 T03260126  RH  030%=      5-min Rain = 0
KPG1 142026Z 08009KT 32/13 A299 RMK A01 T03240126  RH  030%=      5-min Rain = 0
KPG1 142027Z 04010KT 32/13 A299 RMK A01 T03230127  RH  030%=      5-min Rain = 0
KPG1 142028Z 05009KT 32/13 A299 RMK A01 T03230128  RH  030%=      5-min Rain = 0
KPG1 142029Z 05007KT 32/13 A299 RMK A01 T03230128  RH  031%=      5-min Rain = 0
KPG1 142030Z 06009KT 32/13 A299 RMK A01 T03230129  RH  031%=      5-min Rain = 0
KPG1 142031Z 08009KT 32/13 A299 RMK A01 T03230129  RH  031%=      5-min Rain = 0
KPG1 142032Z 05008KT 32/13 A299 RMK A01 T03220129  RH  031%=      5-min Rain = 0
KPG1 142033Z 04009KT 32/13 A299 RMK A01 T03230129  RH  031%=      5-min Rain = 0
KPG1 142034Z 07009KT 32/13 A299 RMK A01 T03220129  RH  031%=      5-min Rain = 0
KPG1 142035Z 07011KT 32/13 A299 RMK A01 T03210127  RH  031%=      5-min Rain = 0
KPG1 142036Z 07012KT 32/13 A299 RMK A01 T03200127  RH  031%=      5-min Rain = 0
KPG1 142037Z 07009KT 32/13 A299 RMK A01 T03200127  RH  031%=      5-min Rain = 0
KPG1 142038Z 05010KT 32/13 A299 RMK A01 T03210127  RH  031%=      5-min Rain = 0
KPG1 142039Z 06008KT 32/13 A299 RMK A01 T03210127  RH  031%=      5-min Rain = 0
KPG1 142040Z 05008KT 32/13 A299 RMK A01 T03210127  RH  031%=      5-min Rain = 0
KPG1 142041Z 04008KT 32/13 A299 RMK A01 T03200127  RH  031%=      5-min Rain = 0
KPG1 142042Z 04007KT 32/13 A299 RMK A01 T03200127  RH  031%=      5-min Rain = 0
KPG1 142043Z 06010KT 32/13 A299 RMK A01 T03200128  RH  031%=      5-min Rain = 0
KPG1 142044Z 06011KT 32/13 A299 RMK A01 T03200129  RH  031%=      5-min Rain = 0
KPG1 142045Z 03011KT 32/14 A299 RMK A01 T03190140  RH  034%=      5-min Rain = 0
KPG1 142046Z 03011KT 32/14 A299 RMK A01 T03160142  RH  035%=      5-min Rain = 0
KPG1 142047Z 03014KT 32/14 A2989 RMK A01 T03150143  RH  035%=      5-min Rain = 0
KPG1 142048Z 03013KT 31/14 A2989 RMK A01 T03140143  RH  036%=      5-min Rain = 0
KPG1 142049Z 03016KT 31/14 A2989 RMK A01 T03140144  RH  036%=      5-min Rain = 0
KPG1 142050Z 03018G27KT 31/15 A2989 RMK A01 T03140148  RH  037%=      5-min Rain = 0
KPG1 142051Z 02022KT 31/15 A2989 RMK A01 T03130145  RH  036%=      5-min Rain = 0
KPG1 142052Z 02017KT 31/14 A2989 RMK A01 T03080139  RH  036%=      5-min Rain = 0
KPG1 142053Z 35015KT 30/14 A2989 RMK A01 T03030136  RH  036%=      5-min Rain = 0
KPG1 142054Z 34013G21KT 30/14 A2989 RMK A01 T03000135  RH  037%=      5-min Rain = 0
KPG1 142055Z 34019KT 30/14 A2989 RMK A01 T02980135  RH  037%=      5-min Rain = 0
KPG1 142056Z 34017KT 30/14 A2989 RMK A01 T02950135  RH  037%=      5-min Rain = 0
KPG1 142057Z 34018G24KT 29/14 A2989 RMK A01 T02930135  RH  038%=      5-min Rain = 0
KPG1 142058Z 34021KT 29/14 A2989 RMK A01 T02920136  RH  038%=      5-min Rain = 0
KPG1 142059Z 33016G21KT 29/14 A2989 RMK A01 T02900136  RH  039%=      5-min Rain = 0
KPG1 142100Z 34018KT 29/14 A2989 RMK A01 T02890136  RH  039%=      5-min Rain = 0
KPG1 142101Z 34022KT 29/14 A299 RMK A01 T02850135  RH  040%=      5-min Rain = 0
KPG1 142102Z 35021G27KT 28/14 A299 RMK A01 T02810135  RH  041%=      5-min Rain = 0
KPG1 142103Z 34020G25KT 28/14 A299 RMK A01 T02780136  RH  041%=      5-min Rain = 0
KPG1 142104Z 34022G27KT 28/14 A299 RMK A01 T02760136  RH  042%=      5-min Rain = 0
KPG1 142105Z 34025G31KT 27/14 A299 RMK A01 T02740136  RH  043%=      5-min Rain = 0
KPG1 142106Z 34025G31KT 27/14 A299 RMK A01 T02730138  RH  043%=      5-min Rain = 0
KPG1 142107Z 34028KT 27/14 A299 RMK A01 T02720138  RH  044%=      5-min Rain = 0
KPG1 142108Z 34024G31KT 27/14 A2991 RMK A01 T02710139  RH  044%=      5-min Rain = 0
KPG1 142109Z 34023G30KT 27/14 A2991 RMK A01 T02690139  RH  045%=      5-min Rain = 0
KPG1 142110Z 34030KT 27/14 A299 RMK A01 T02680141  RH  045%=      5-min Rain = 0
KPG1 142111Z 34025G30KT 27/14 A299 RMK A01 T02670142  RH  046%=      5-min Rain = 0
KPG1 142112Z 34024KT 27/14 A299 RMK A01 T02670143  RH  046%=      5-min Rain = 0
KPG1 142113Z 34027G36KT 27/14 A299 RMK A01 T02670142  RH  046%=      5-min Rain = 0
KPG1 142114Z 35028G35KT 27/14 A299 RMK A01 T02680144  RH  047%=      5-min Rain = 0
KPG1 142115Z 34028G34KT 27/15 A299 RMK A01 T02670145  RH  047%=      5-min Rain = 0
KPG1 142116Z 34025G30KT 27/15 A299 RMK A01 T02660146  RH  048%=      5-min Rain = 0
KPG1 142117Z 34027G34KT 27/15 A299 RMK A01 T02660147  RH  048%=      5-min Rain = 0
KPG1 142118Z 34026G32KT 27/15 A299 RMK A01 T02680148  RH  048%=      5-min Rain = 0
KPG1 142119Z 33024G30KT 27/15 A299 RMK A01 T02690148  RH  047%=      5-min Rain = 0
KPG1 142120Z 34022G27KT 27/15 A299 RMK A01 T02680148  RH  047%=      5-min Rain = 0
KPG1 142121Z 35022G29KT 27/15 A2991 RMK A01 T02690147  RH  047%=      5-min Rain = 0
KPG1 142122Z 34024G30KT 27/15 A299 RMK A01 T02700147  RH  047%=      5-min Rain = 0
KPG1 142123Z 34025KT 27/15 A299 RMK A01 T02680145  RH  047%=      5-min Rain = 0
KPG1 142124Z 34026G33KT 27/15 A299 RMK A01 T02670145  RH  047%=      5-min Rain = 0
KPG1 142125Z 35022G27KT 27/14 A2991 RMK A01 T02670144  RH  047%=      5-min Rain = 0
KPG1 142126Z 34020G26KT 27/14 A2991 RMK A01 T02680144  RH  046%=      5-min Rain = 0
KPG1 142127Z 35025G31KT 27/14 A2991 RMK A01 T02700143  RH  046%=      5-min Rain = 0
KPG1 142128Z 34027G32KT 27/14 A299 RMK A01 T02690143  RH  046%=      5-min Rain = 0
KPG1 142129Z 34023G29KT 27/14 A299 RMK A01 T02660143  RH  047%=      5-min Rain = 0
KPG1 142130Z 34025KT 26/14 A299 RMK A01 T02630144  RH  048%=      5-min Rain = 0
KPG1 142131Z 34022G27KT 26/14 A2991 RMK A01 T02640144  RH  048%=      5-min Rain = 0
KPG1 142132Z 35023G30KT 26/14 A2991 RMK A01 T02640144  RH  048%=      5-min Rain = 0
KPG1 142133Z 34027G32KT 27/14 A299 RMK A01 T02650144  RH  047%=      5-min Rain = 0
KPG1 142134Z 34027KT 26/14 A2991 RMK A01 T02610143  RH  048%=      5-min Rain = 0
KPG1 142135Z 35025KT 26/14 A2991 RMK A01 T02590143  RH  049%=      5-min Rain = 0
KPG1 142136Z 34024G32KT 26/14 A2991 RMK A01 T02580144  RH  049%=      5-min Rain = 0
KPG1 142137Z 34022G27KT 26/14 A2991 RMK A01 T02580144  RH  049%=      5-min Rain = 0
KPG1 142138Z 35023G31KT 26/15 A2991 RMK A01 T02590145  RH  049%=      5-min Rain = 0
KPG1 142139Z 34025G32KT 26/15 A2991 RMK A01 T02590145  RH  049%=      5-min Rain = 0
KPG1 142140Z 34025G30KT 26/14 A2991 RMK A01 T02580144  RH  050%=      5-min Rain = 0
KPG1 142141Z 35024G30KT 26/14 A2991 RMK A01 T02580144  RH  049%=      5-min Rain = 0
KPG1 142142Z 34023G31KT 26/15 A2991 RMK A01 T02590145  RH  049%=      5-min Rain = 0
KPG1 142143Z 34026G31KT 26/14 A299 RMK A01 T02600144  RH  049%=      5-min Rain = 0
KPG1 142144Z 34022G32KT 26/14 A299 RMK A01 T02600144  RH  049%=      5-min Rain = 0
KPG1 142145Z 34025G33KT 26/15 A299 RMK A01 T02590145  RH  049%=      5-min Rain = 0
KPG1 142146Z 34025G31KT 26/15 A299 RMK A01 T02550146  RH  051%=      5-min Rain = 0
KPG1 142147Z 34025KT 25/15 A299 RMK A01 T02530146  RH  052%=      5-min Rain = 0
KPG1 142148Z 35025G31KT 25/15 A299 RMK A01 T02520147  RH  052%=      5-min Rain = 0
KPG1 142149Z 34029KT 25/15 A299 RMK A01 T02510146  RH  052%=      5-min Rain = 0
KPG1 142150Z 35027G32KT 25/15 A299 RMK A01 T02490146  RH  053%=      5-min Rain = 0
KPG1 142151Z 35028G33KT 25/15 A299 RMK A01 T02470147  RH  053%=      5-min Rain = 0
KPG1 142152Z 34025G31KT 25/15 A299 RMK A01 T02470146  RH  053%=      5-min Rain = 0
KPG1 142153Z 35022G31KT 25/15 A299 RMK A01 T02460147  RH  054%=      5-min Rain = 0
KPG1 142154Z 35024G30KT 25/15 A299 RMK A01 T02460147  RH  054%=      5-min Rain = 0
KPG1 142155Z 35022KT 25/15 A299 RMK A01 T02460147  RH  054%=      5-min Rain = 0
KPG1 142156Z 35019G25KT 25/15 A299 RMK A01 T02470147  RH  054%=      5-min Rain = 0
KPG1 142157Z 35022KT 25/15 A299 RMK A01 T02470149  RH  054%=      5-min Rain = 0
KPG1 142158Z 00020G26KT 25/15 A299 RMK A01 T02460149  RH  055%=      5-min Rain = 0
KPG1 142159Z 36024G30KT 25/15 A299 RMK A01 T02460149  RH  055%=      5-min Rain = 0
KPG1 142200Z 00022G27KT 25/15 A299 RMK A01 T02460149  RH  055%=      5-min Rain = 0
KPG1 142201Z 35023KT 25/15 A299 RMK A01 T02450149  RH  055%=      5-min Rain = 0
KPG1 142202Z 36025KT 24/15 A2989 RMK A01 T02440149  RH  055%=      5-min Rain = 0
KPG1 142203Z 36021G26KT 24/15 A2989 RMK A01 T02430149  RH  056%=      5-min Rain = 0
KPG1 142204Z 35024G29KT 24/15 A2989 RMK A01 T02430149  RH  056%=      5-min Rain = 0
KPG1 142205Z 35021KT 24/15 A2989 RMK A01 T02430149  RH  056%=      5-min Rain = 0
KPG1 142206Z 35024KT 24/15 A2989 RMK A01 T02430149  RH  056%=      5-min Rain = 0
KPG1 142207Z 36024KT 24/15 A2989 RMK A01 T02420149  RH  056%=      5-min Rain = 0
KPG1 142208Z 36023KT 24/15 A2989 RMK A01 T02420148  RH  056%=      5-min Rain = 0
KPG1 142209Z 36022KT 24/15 A2989 RMK A01 T02420148  RH  056%=      5-min Rain = 0
KPG1 142210Z 36022KT 24/15 A2989 RMK A01 T02430148  RH  055%=      5-min Rain = 0
KPG1 142211Z 36021KT 24/15 A2989 RMK A01 T02440149  RH  055%=      5-min Rain = 0
KPG1 142212Z 00020KT 25/15 A2989 RMK A01 T02450148  RH  055%=      5-min Rain = 0
KPG1 142213Z 00020KT 25/15 A2989 RMK A01 T02450149  RH  055%=      5-min Rain = 0
KPG1 142214Z 00018G25KT 25/15 A2989 RMK A01 T02460149  RH  055%=      5-min Rain = 0
KPG1 142215Z 35020KT 25/15 A2989 RMK A01 T02470149  RH  054%=      5-min Rain = 0
KPG1 142216Z 35021G26KT 25/15 A2989 RMK A01 T02470149  RH  054%=      5-min Rain = 0
KPG1 142217Z 36019KT 25/15 A2989 RMK A01 T02470149  RH  054%=      5-min Rain = 0
KPG1 142218Z 36019KT 25/15 A299 RMK A01 T02480150  RH  054%=      5-min Rain = 0
KPG1 142219Z 01018KT 25/15 A299 RMK A01 T02480149  RH  054%=      5-min Rain = 0
KPG1 142220Z 02020G25KT 25/15 A299 RMK A01 T02480149  RH  054%=      5-min Rain = 0
KPG1 142221Z 01019KT 25/15 A299 RMK A01 T02480149  RH  054%=      5-min Rain = 0
KPG1 142222Z 01020KT 25/15 A2991 RMK A01 T02470149  RH  054%=      5-min Rain = 0
KPG1 142223Z 01020KT 25/15 A2991 RMK A01 T02470150  RH  055%=      5-min Rain = 0
KPG1 142224Z 01020KT 25/15 A2991 RMK A01 T02470150  RH  055%=      5-min Rain = 0
KPG1 142225Z 01024KT 25/15 A2991 RMK A01 T02470150  RH  055%=      5-min Rain = 0
KPG1 142226Z 02018KT 25/15 A2992 RMK A01 T02460150  RH  055%=      5-min Rain = 0
KPG1 142227Z 03018KT 25/15 A2992 RMK A01 T02460150  RH  055%=      5-min Rain = 0
KPG1 142228Z 02020KT 25/15 A2992 RMK A01 T02470150  RH  055%=      5-min Rain = 0
KPG1 142229Z 02018G24KT 25/15 A2993 RMK A01 T02470151  RH  055%=      5-min Rain = 0
KPG1 142230Z 01016KT 25/15 A2993 RMK A01 T02490151  RH  055%=      5-min Rain = 0
KPG1 142231Z 03015G20KT 25/15 A2993 RMK A01 T02490151  RH  054%=      5-min Rain = 0
KPG1 142232Z 02020KT 25/15 A2993 RMK A01 T02500152  RH  054%=      5-min Rain = 0
KPG1 142233Z 02021KT 25/15 A2993 RMK A01 T02510152  RH  054%=      5-min Rain = 0
KPG1 142234Z 02018KT 25/15 A2993 RMK A01 T02490152  RH  055%=      5-min Rain = 0
KPG1 142235Z 02018KT 25/15 A2993 RMK A01 T02480152  RH  055%=      5-min Rain = 0
KPG1 142236Z 03015KT 25/15 A2994 RMK A01 T02480153  RH  055%=      5-min Rain = 0
KPG1 142237Z 03021KT 25/15 A2994 RMK A01 T02500153  RH  055%=      5-min Rain = 0
KPG1 142238Z 02018KT 25/15 A2994 RMK A01 T02490153  RH  055%=      5-min Rain = 0
KPG1 142239Z 02021KT 25/15 A2994 RMK A01 T02490154  RH  056%=      5-min Rain = 0
KPG1 142240Z 02020KT 25/15 A2994 RMK A01 T02480154  RH  056%=      5-min Rain = 0
KPG1 142241Z 02020KT 25/16 A2994 RMK A01 T02490155  RH  056%=      5-min Rain = 0
KPG1 142242Z 02021KT 25/16 A2994 RMK A01 T02490155  RH  056%=      5-min Rain = 0
KPG1 142243Z 03018KT 25/16 A2994 RMK A01 T02490156  RH  056%=      5-min Rain = 0
KPG1 142244Z 03018KT 25/16 A2994 RMK A01 T02490156  RH  056%=      5-min Rain = 0
KPG1 142245Z 03020KT 25/16 A2994 RMK A01 T02490156  RH  056%=      5-min Rain = 0
KPG1 142246Z 04017KT 25/16 A2994 RMK A01 T02490157  RH  057%=      5-min Rain = 0
KPG1 142247Z 04017G23KT 25/16 A2994 RMK A01 T02490157  RH  057%=      5-min Rain = 0
KPG1 142248Z 03017KT 25/16 A2994 RMK A01 T02500158  RH  057%=      5-min Rain = 0
KPG1 142249Z 04016G25KT 25/16 A2994 RMK A01 T02510159  RH  057%=      5-min Rain = 0
KPG1 142250Z 05019G24KT 25/16 A2995 RMK A01 T02520160  RH  056%=      5-min Rain = 0
KPG1 142251Z 06020G31KT 25/16 A2995 RMK A01 T02530163  RH  058%=      5-min Rain = 0
KPG1 142252Z 07025KT 25/17 A2995 RMK A01 T02500169  RH  061%=      5-min Rain = 0
KPG1 142253Z 05018KT 25/17 A2995 RMK A01 T02460171  RH  063%=      5-min Rain = 0
KPG1 142254Z 06020KT 25/17 A2995 RMK A01 T02460171  RH  063%=      5-min Rain = 0
KPG1 142255Z 05019G28KT 25/17 A2995 RMK A01 T02450172  RH  064%=      5-min Rain = 0
KPG1 142256Z 06020G25KT 24/17 A2995 RMK A01 T02440172  RH  064%=      5-min Rain = 0
KPG1 142257Z 05016G21KT 24/17 A2995 RMK A01 T02420173  RH  065%=      5-min Rain = 0
KPG1 142258Z 04020KT 24/17 A2995 RMK A01 T02420172  RH  065%=      5-min Rain = 0
KPG1 142259Z 04018G24KT 24/17 A2995 RMK A01 T02420172  RH  065%=      5-min Rain = 0
KPG1 142300Z 05017KT 24/17 A2995 RMK A01 T02420172  RH  065%=      5-min Rain = 0
KPG1 142301Z 06021G26KT 24/17 A2995 RMK A01 T02420172  RH  065%=      5-min Rain = 0
KPG1 142302Z 05020G25KT 24/17 A2995 RMK A01 T02400171  RH  065%=      5-min Rain = 0
KPG1 142303Z 05017KT 24/17 A2995 RMK A01 T02390170  RH  065%=      5-min Rain = 0
KPG1 142304Z 06018KT 24/17 A2995 RMK A01 T02380169  RH  065%=      5-min Rain = 0
KPG1 142305Z 06021G26KT 24/17 A2995 RMK A01 T02390168  RH  065%=      5-min Rain = 0
KPG1 142306Z 07024G30KT 24/17 A2995 RMK A01 T02390168  RH  065%=      5-min Rain = 0
KPG1 142307Z 05018G23KT 24/17 A2995 RMK A01 T02380167  RH  064%=      5-min Rain = 0
KPG1 142308Z 05016G21KT 24/17 A2994 RMK A01 T02400167  RH  064%=      5-min Rain = 0
KPG1 142309Z 06016KT 24/17 A2994 RMK A01 T02410167  RH  063%=      5-min Rain = 0
KPG1 142310Z 06021G26KT 24/17 A2994 RMK A01 T02410168  RH  064%=      5-min Rain = 0
KPG1 142311Z 05018G25KT 24/17 A2994 RMK A01 T02400170  RH  065%=      5-min Rain = 0
KPG1 142312Z 07022KT 24/17 A2994 RMK A01 T02390169  RH  065%=      5-min Rain = 0
KPG1 142313Z 06020G26KT 24/17 A2994 RMK A01 T02390167  RH  064%=      5-min Rain = 0
KPG1 142314Z 06018G23KT 24/17 A2994 RMK A01 T02390165  RH  063%=      5-min Rain = 0
KPG1 142315Z 05017KT 24/17 A2994 RMK A01 T02400165  RH  063%=      5-min Rain = 0
KPG1 142316Z 06015KT 24/17 A2994 RMK A01 T02410165  RH  062%=      5-min Rain = 0
KPG1 142317Z 06018KT 24/16 A2994 RMK A01 T02430164  RH  062%=      5-min Rain = 0
KPG1 142318Z 05014KT 24/16 A2994 RMK A01 T02430164  RH  061%=      5-min Rain = 0
KPG1 142319Z 06020G28KT 24/16 A2994 RMK A01 T02430163  RH  061%=      5-min Rain = 0
KPG1 142320Z 06021KT 24/16 A2994 RMK A01 T02420162  RH  061%=      5-min Rain = 0
KPG1 142321Z 06019KT 24/16 A2995 RMK A01 T02400160  RH  061%=      5-min Rain = 0
KPG1 142322Z 07017G24KT 24/16 A2995 RMK A01 T02390158  RH  060%=      5-min Rain = 0
KPG1 142323Z 06016G23KT 24/16 A2994 RMK A01 T02390157  RH  060%=      5-min Rain = 0
KPG1 142324Z 06018KT 24/16 A2995 RMK A01 T02390156  RH  060%=      5-min Rain = 0
KPG1 142325Z 07014G22KT 24/16 A2995 RMK A01 T02390155  RH  059%=      5-min Rain = 0
KPG1 142326Z 08018G25KT 24/16 A2995 RMK A01 T02400156  RH  059%=      5-min Rain = 0
KPG1 142327Z 07021KT 24/15 A2995 RMK A01 T02370154  RH  060%=      5-min Rain = 0
KPG1 142328Z 08016G21KT 23/15 A2995 RMK A01 T02340154  RH  061%=      5-min Rain = 0
KPG1 142329Z 07016G21KT 23/15 A2995 RMK A01 T02340154  RH  061%=      5-min Rain = 0
KPG1 142330Z 10010KT 24/15 A2995 RMK A01 T02350154  RH  060%=      5-min Rain = 0
KPG1 142331Z 11010G15KT 24/16 A2995 RMK A01 T02370155  RH  060%=      5-min Rain = 0
KPG1 142332Z 07013G18KT 24/16 A2995 RMK A01 T02370156  RH  060%=      5-min Rain = 0
KPG1 142333Z 08007KT 24/16 A2994 RMK A01 T02390157  RH  060%=      5-min Rain = 0
KPG1 142334Z 08008G15KT 24/16 A2994 RMK A01 T02400157  RH  060%=      5-min Rain = 0
KPG1 142335Z 11013G20KT 24/16 A2994 RMK A01 T02410157  RH  060%=      5-min Rain = 0
KPG1 142336Z 08014G20KT 24/16 A2994 RMK A01 T02410157  RH  060%=      5-min Rain = 0
KPG1 142337Z 08010G16KT 24/16 A2994 RMK A01 T02400157  RH  060%=      5-min Rain = 0
KPG1 142338Z 06011G16KT 24/16 A2994 RMK A01 T02400158  RH  060%=      5-min Rain = 0
KPG1 142339Z 10014G19KT 24/16 A2994 RMK A01 T02390158  RH  061%=      5-min Rain = 0
KPG1 142340Z 07011G17KT 24/16 A2994 RMK A01 T02390159  RH  061%=      5-min Rain = 0
KPG1 142341Z 06017KT 24/16 A2994 RMK A01 T02400158  RH  060%=      5-min Rain = 0
KPG1 142342Z 07015G20KT 24/16 A2994 RMK A01 T02390157  RH  060%=      5-min Rain = 0
KPG1 142343Z 06012KT 24/16 A2994 RMK A01 T02400157  RH  060%=      5-min Rain = 0
KPG1 142344Z 05015KT 24/16 A2994 RMK A01 T02410157  RH  060%=      5-min Rain = 0
KPG1 142345Z 06015KT 24/16 A2994 RMK A01 T02420158  RH  059%=      5-min Rain = 0
KPG1 142346Z 06016KT 24/16 A2994 RMK A01 T02440159  RH  059%=      5-min Rain = 0
KPG1 142347Z 05021KT 25/16 A2993 RMK A01 T02450160  RH  059%=      5-min Rain = 0
KPG1 142348Z 05024G29KT 24/16 A2993 RMK A01 T02420160  RH  060%=      5-min Rain = 0
KPG1 142349Z 05020G25KT 24/16 A2993 RMK A01 T02410161  RH  061%=      5-min Rain = 0
KPG1 142350Z 05022G27KT 24/16 A2993 RMK A01 T02410163  RH  062%=      5-min Rain = 0
KPG1 142351Z 05022KT 24/16 A2993 RMK A01 T02390164  RH  063%=      5-min Rain = 0
KPG1 142352Z 06022KT 24/17 A2993 RMK A01 T02370166  RH  064%=      5-min Rain = 0
KPG1 142353Z 06022KT 24/17 A2993 RMK A01 T02350166  RH  065%=      5-min Rain = 0
KPG1 142354Z 06021G26KT 23/17 A2993 RMK A01 T02340167  RH  066%=      5-min Rain = 0
KPG1 142355Z 06024KT 23/17 A2992 RMK A01 T02340168  RH  066%=      5-min Rain = 0
KPG1 142356Z 06021KT 23/17 A2992 RMK A01 T02330168  RH  067%=      5-min Rain = 0
KPG1 142357Z 07023KT 23/17 A2992 RMK A01 T02330168  RH  067%=      5-min Rain = 0
KPG1 142358Z 06020KT 23/17 A2992 RMK A01 T02330168  RH  067%=      5-min Rain = 0
KPG1 142359Z 05016KT 23/17 A2992 RMK A01 T02330169  RH  067%=      5-min Rain = 0
KPG1 150000Z 06019KT 23/17 A2992 RMK A01 T02330168  RH  067%=      5-min Rain = 0
KPG1 150001Z 07017G22KT 23/17 A2992 RMK A01 T02340168  RH  067%=      5-min Rain = 0
KPG1 150002Z 08014G19KT 23/17 A2992 RMK A01 T02340168  RH  066%=      5-min Rain = 0
KPG1 150003Z 05017KT 24/17 A2992 RMK A01 T02350169  RH  066%=      5-min Rain = 0
KPG1 150004Z 06013KT 24/17 A2992 RMK A01 T02350169  RH  066%=      5-min Rain = 0
KPG1 150005Z 05015KT 24/17 A2992 RMK A01 T02350169  RH  066%=      5-min Rain = 0
KPG1 150006Z 06016KT 24/17 A2992 RMK A01 T02360168  RH  066%=      5-min Rain = 0
KPG1 150007Z 05015KT 24/17 A2992 RMK A01 T02360168  RH  066%=      5-min Rain = 0
KPG1 150008Z 05013G18KT 24/17 A2992 RMK A01 T02360168  RH  066%=      5-min Rain = 0
KPG1 150009Z 05012KT 24/17 A2993 RMK A01 T02370168  RH  065%=      5-min Rain = 0
KPG1 150010Z 05013KT 24/17 A2993 RMK A01 T02370168  RH  065%=      5-min Rain = 0
KPG1 150011Z 06013KT 24/17 A2993 RMK A01 T02380168  RH  065%=      5-min Rain = 0
KPG1 150012Z 05012G17KT 24/17 A2993 RMK A01 T02390168  RH  064%=      5-min Rain = 0
KPG1 150013Z 06013KT 24/17 A2992 RMK A01 T02390168  RH  064%=      5-min Rain = 0
KPG1 150014Z 07014KT 24/17 A2992 RMK A01 T02390168  RH  064%=      5-min Rain = 0
KPG1 150015Z 06018KT 24/17 A2993 RMK A01 T02390167  RH  064%=      5-min Rain = 0
KPG1 150016Z 06019G25KT 24/17 A2992 RMK A01 T02390166  RH  064%=      5-min Rain = 0
KPG1 150017Z 06018KT 24/17 A2993 RMK A01 T02380166  RH  064%=      5-min Rain = 0
KPG1 150018Z 06018KT 24/17 A2993 RMK A01 T02380166  RH  064%=      5-min Rain = 0
KPG1 150019Z 06017KT 24/17 A2993 RMK A01 T02380166  RH  064%=      5-min Rain = 0
KPG1 150020Z 06016KT 24/17 A2993 RMK A01 T02380167  RH  064%=      5-min Rain = 0
KPG1 150021Z 06019KT 24/17 A2993 RMK A01 T02380165  RH  064%=      5-min Rain = 0
KPG1 150022Z 06020KT 24/16 A2993 RMK A01 T02380163  RH  063%=      5-min Rain = 0
KPG1 150023Z 06019KT 24/16 A2993 RMK A01 T02380161  RH  062%=      5-min Rain = 0
KPG1 150024Z 06019KT 24/16 A2993 RMK A01 T02390160  RH  061%=      5-min Rain = 0
KPG1 150025Z 06017KT 24/16 A2993 RMK A01 T02390162  RH  062%=      5-min Rain = 0
KPG1 150026Z 06015KT 24/16 A2993 RMK A01 T02390163  RH  063%=      5-min Rain = 0
KPG1 150027Z 05015KT 24/16 A2993 RMK A01 T02390163  RH  062%=      5-min Rain = 0
KPG1 150028Z 08011KT 24/16 A2993 RMK A01 T02400163  RH  062%=      5-min Rain = 0
KPG1 150029Z 05011G17KT 24/16 A2993 RMK A01 T02400163  RH  062%=      5-min Rain = 0
KPG1 150030Z 05017KT 24/16 A2993 RMK A01 T02400163  RH  062%=      5-min Rain = 0
KPG1 150031Z 06013G19KT 24/16 A2993 RMK A01 T02410163  RH  062%=      5-min Rain = 0
KPG1 150032Z 06014KT 24/16 A2993 RMK A01 T02420163  RH  061%=      5-min Rain = 0
KPG1 150033Z 05016KT 24/16 A2993 RMK A01 T02430160  RH  060%=      5-min Rain = 0
KPG1 150034Z 06018KT 24/16 A2993 RMK A01 T02430157  RH  059%=      5-min Rain = 0
KPG1 150035Z 06014KT 24/16 A2993 RMK A01 T02420157  RH  059%=      5-min Rain = 0
KPG1 150036Z 06013KT 24/16 A2993 RMK A01 T02430157  RH  059%=      5-min Rain = 0
KPG1 150037Z 07011KT 24/16 A2993 RMK A01 T02440158  RH  058%=      5-min Rain = 0
KPG1 150038Z 05015KT 25/16 A2993 RMK A01 T02460157  RH  058%=      5-min Rain = 0
KPG1 150039Z 06019KT 25/16 A2993 RMK A01 T02450155  RH  057%=      5-min Rain = 0
KPG1 150040Z 06018KT 24/15 A2993 RMK A01 T02430153  RH  057%=      5-min Rain = 0
KPG1 150041Z 07014G19KT 24/15 A2993 RMK A01 T02430153  RH  057%=      5-min Rain = 0
KPG1 150042Z 06014G19KT 25/15 A2993 RMK A01 T02450154  RH  057%=      5-min Rain = 0
KPG1 150043Z 07009KT 25/16 A2993 RMK A01 T02450157  RH  058%=      5-min Rain = 0
KPG1 150044Z 08010G15KT 25/16 A2993 RMK A01 T02450159  RH  059%=      5-min Rain = 0
KPG1 150045Z 08014KT 25/16 A2993 RMK A01 T02450161  RH  060%=      5-min Rain = 0
KPG1 150046Z 09015KT 24/16 A2993 RMK A01 T02430164  RH  061%=      5-min Rain = 0
KPG1 150047Z 09012KT 24/16 A2993 RMK A01 T02400164  RH  062%=      5-min Rain = 0
KPG1 150048Z 07011KT 24/17 A2994 RMK A01 T02400165  RH  063%=      5-min Rain = 0
KPG1 150049Z 07013KT 24/16 A2994 RMK A01 T02410164  RH  062%=      5-min Rain = 0
KPG1 150050Z 08012KT 24/17 A2994 RMK A01 T02410165  RH  063%=      5-min Rain = 0
KPG1 150051Z 08013KT 24/17 A2994 RMK A01 T02410165  RH  062%=      5-min Rain = 0
KPG1 150052Z 07015KT 24/16 A2994 RMK A01 T02410164  RH  062%=      5-min Rain = 0
KPG1 150053Z 07015G20KT 24/16 A2994 RMK A01 T02400163  RH  062%=      5-min Rain = 0
KPG1 150054Z 07015KT 24/16 A2994 RMK A01 T02380163  RH  063%=      5-min Rain = 0
KPG1 150055Z 07014KT 24/16 A2994 RMK A01 T02370164  RH  063%=      5-min Rain = 0
KPG1 150056Z 08013KT 24/16 A2994 RMK A01 T02360163  RH  064%=      5-min Rain = 0
KPG1 150057Z 07011G16KT 24/16 A2994 RMK A01 T02360162  RH  063%=      5-min Rain = 0
KPG1 150058Z 06016G23KT 24/16 A2994 RMK A01 T02370162  RH  063%=      5-min Rain = 0
KPG1 150059Z 07016KT 24/16 A2994 RMK A01 T02370160  RH  062%=      5-min Rain = 0
KPG1 150100Z 09010KT 24/16 A2994 RMK A01 T02370160  RH  062%=      5-min Rain = 0
KPG1 150101Z 08011KT 24/16 A2994 RMK A01 T02370160  RH  062%=      5-min Rain = 0
KPG1 150102Z 08008KT 24/16 A2994 RMK A01 T02370158  RH  061%=      5-min Rain = 0
KPG1 150103Z 06013G18KT 24/16 A2994 RMK A01 T02370156  RH  060%=      5-min Rain = 0
KPG1 150104Z 08015KT 24/15 A2994 RMK A01 T02380153  RH  059%=      5-min Rain = 0
KPG1 150105Z 07011G16KT 24/15 A2994 RMK A01 T02370152  RH  059%=      5-min Rain = 0
KPG1 150106Z 07014KT 24/15 A2994 RMK A01 T02360152  RH  059%=      5-min Rain = 0
KPG1 150107Z 07016KT 24/15 A2994 RMK A01 T02370152  RH  059%=      5-min Rain = 0
KPG1 150108Z 07015G21KT 24/15 A2994 RMK A01 T02370152  RH  059%=      5-min Rain = 0
KPG1 150109Z 06016G22KT 24/15 A2994 RMK A01 T02360153  RH  060%=      5-min Rain = 0
KPG1 150110Z 06012G18KT 24/15 A2994 RMK A01 T02350154  RH  060%=      5-min Rain = 0
KPG1 150111Z 10008KT 24/15 A2994 RMK A01 T02350154  RH  060%=      5-min Rain = 0
KPG1 150112Z 06010KT 24/16 A2994 RMK A01 T02350155  RH  061%=      5-min Rain = 0
KPG1 150113Z 07013KT 24/16 A2994 RMK A01 T02350156  RH  061%=      5-min Rain = 0
KPG1 150114Z 08010KT 24/16 A2994 RMK A01 T02360158  RH  062%=      5-min Rain = 0
KPG1 150115Z 07011KT 24/16 A2994 RMK A01 T02350159  RH  062%=      5-min Rain = 0
KPG1 150116Z 08011KT 24/16 A2994 RMK A01 T02350160  RH  063%=      5-min Rain = 0
KPG1 150117Z 08010KT 23/16 A2994 RMK A01 T02340162  RH  064%=      5-min Rain = 0
KPG1 150118Z 07013KT 23/16 A2994 RMK A01 T02330162  RH  064%=      5-min Rain = 0
KPG1 150119Z 06012KT 23/16 A2994 RMK A01 T02330164  RH  065%=      5-min Rain = 0
KPG1 150120Z 09009KT 23/17 A2994 RMK A01 T02320165  RH  066%=      5-min Rain = 0
KPG1 150121Z 06007KT 23/17 A2994 RMK A01 T02320165  RH  066%=      5-min Rain = 0
KPG1 150122Z 05008KT 23/17 A2994 RMK A01 T02320165  RH  066%=      5-min Rain = 0
KPG1 150123Z 05011KT 23/17 A2994 RMK A01 T02310166  RH  067%=      5-min Rain = 0
KPG1 150124Z 07012KT 23/17 A2993 RMK A01 T02310167  RH  067%=      5-min Rain = 0
KPG1 150125Z 06012KT 23/17 A2993 RMK A01 T02300168  RH  068%=      5-min Rain = 0
KPG1 150126Z 06010KT 23/17 A2993 RMK A01 T02300168  RH  068%=      5-min Rain = 0
KPG1 150127Z 05013KT 23/17 A2993 RMK A01 T02300169  RH  068%=      5-min Rain = 0
KPG1 150128Z 07012KT 23/17 A2993 RMK A01 T02300169  RH  068%=      5-min Rain = 0
KPG1 150129Z 06010KT 23/17 A2993 RMK A01 T02300170  RH  069%=      5-min Rain = 0
KPG1 150130Z 06012KT 23/17 A2993 RMK A01 T02300170  RH  069%=      5-min Rain = 0
KPG1 150131Z 07013KT 23/17 A2993 RMK A01 T02310172  RH  069%=      5-min Rain = 0
KPG1 150132Z 09010G15KT 23/17 A2993 RMK A01 T02310172  RH  069%=      5-min Rain = 0
KPG1 150133Z 06009KT 23/17 A2993 RMK A01 T02310172  RH  070%=      5-min Rain = 0
KPG1 150134Z 06012KT 23/17 A2993 RMK A01 T02310172  RH  069%=      5-min Rain = 0
KPG1 150135Z 05013KT 23/17 A2993 RMK A01 T02310173  RH  070%=      5-min Rain = 0
KPG1 150136Z 05014KT 23/17 A2993 RMK A01 T02310174  RH  070%=      5-min Rain = 0
KPG1 150137Z 06015KT 23/17 A2993 RMK A01 T02300174  RH  071%=      5-min Rain = 0
KPG1 150138Z 06014KT 23/17 A2993 RMK A01 T02300174  RH  071%=      5-min Rain = 0
KPG1 150139Z 05012KT 23/18 A2993 RMK A01 T02300175  RH  071%=      5-min Rain = 0
KPG1 150140Z 04011KT 23/17 A2993 RMK A01 T02300174  RH  071%=      5-min Rain = 0
KPG1 150141Z 05011KT 23/18 A2993 RMK A01 T02300175  RH  071%=      5-min Rain = 0
KPG1 150142Z 05009KT 23/18 A2993 RMK A01 T02290175  RH  071%=      5-min Rain = 0
KPG1 150143Z 04009KT 23/18 A2993 RMK A01 T02290175  RH  071%=      5-min Rain = 0
KPG1 150144Z 05011KT 23/18 A2993 RMK A01 T02290175  RH  071%=      5-min Rain = 0
KPG1 150145Z 05009KT 23/18 A2993 RMK A01 T02290176  RH  072%=      5-min Rain = 0
KPG1 150146Z 06010KT 23/18 A2993 RMK A01 T02290176  RH  072%=      5-min Rain = 0
KPG1 150147Z 04012KT 23/18 A2993 RMK A01 T02290176  RH  072%=      5-min Rain = 0
KPG1 150148Z 04009KT 23/18 A2993 RMK A01 T02280176  RH  072%=      5-min Rain = 0
KPG1 150149Z 05009KT 23/18 A2993 RMK A01 T02280176  RH  072%=      5-min Rain = 0
KPG1 150150Z 03007KT 23/18 A2993 RMK A01 T02280176  RH  072%=      5-min Rain = 0
KPG1 150151Z 03008KT 23/18 A2993 RMK A01 T02280176  RH  072%=      5-min Rain = 0
KPG1 150152Z 05010KT 23/18 A2993 RMK A01 T02290177  RH  073%=      5-min Rain = 0
KPG1 150153Z 05009KT 23/18 A2993 RMK A01 T02290177  RH  073%=      5-min Rain = 0
KPG1 150154Z 06008KT 23/18 A2993 RMK A01 T02280177  RH  073%=      5-min Rain = 0
KPG1 150155Z 02009KT 23/18 A2993 RMK A01 T02280177  RH  073%=      5-min Rain = 0
KPG1 150156Z 03010KT 23/18 A2993 RMK A01 T02280177  RH  073%=      5-min Rain = 0
KPG1 150157Z 04011KT 23/18 A2993 RMK A01 T02280177  RH  073%=      5-min Rain = 0
KPG1 150158Z 04009KT 23/18 A2993 RMK A01 T02280177  RH  073%=      5-min Rain = 0
KPG1 150159Z 03011KT 23/18 A2993 RMK A01 T02280178  RH  073%=      5-min Rain = 0
KPG1 150200Z 03009KT 23/18 A2993 RMK A01 T02280178  RH  073%=      5-min Rain = 0
KPG1 150201Z 02012KT 23/18 A2993 RMK A01 T02280178  RH  074%=      5-min Rain = 0
KPG1 150202Z 03010KT 23/18 A2993 RMK A01 T02280178  RH  074%=      5-min Rain = 0
KPG1 150203Z 03009KT 23/18 A2993 RMK A01 T02280178  RH  074%=      5-min Rain = 0
KPG1 150204Z 02011KT 23/18 A2993 RMK A01 T02280178  RH  074%=      5-min Rain = 0
KPG1 150205Z 03012KT 23/18 A2993 RMK A01 T02270178  RH  074%=      5-min Rain = 0
KPG1 150206Z 03009KT 23/18 A2993 RMK A01 T02270178  RH  074%=      5-min Rain = 0
KPG1 150207Z 04011KT 23/18 A2993 RMK A01 T02270178  RH  074%=      5-min Rain = 0
KPG1 150208Z 04011KT 23/18 A2993 RMK A01 T02270177  RH  073%=      5-min Rain = 0
KPG1 150209Z 04010KT 23/18 A2993 RMK A01 T02270177  RH  073%=      5-min Rain = 0
KPG1 150210Z 03012G17KT 23/18 A2993 RMK A01 T02270177  RH  073%=      5-min Rain = 0
KPG1 150211Z 02012KT 23/18 A2993 RMK A01 T02270177  RH  073%=      5-min Rain = 0
KPG1 150212Z 03011KT 23/18 A2993 RMK A01 T02280177  RH  073%=      5-min Rain = 0
KPG1 150213Z 03013KT 23/18 A2993 RMK A01 T02270177  RH  073%=      5-min Rain = 0
KPG1 150214Z 03012KT 23/18 A2993 RMK A01 T02280176  RH  073%=      5-min Rain = 0
KPG1 150215Z 03013KT 23/18 A2994 RMK A01 T02280177  RH  073%=      5-min Rain = 0
KPG1 150216Z 03009KT 23/18 A2994 RMK A01 T02280177  RH  073%=      5-min Rain = 0
KPG1 150217Z 04011KT 23/18 A2994 RMK A01 T02280177  RH  073%=      5-min Rain = 0
KPG1 150218Z 03008KT 23/18 A2994 RMK A01 T02280177  RH  073%=      5-min Rain = 0
KPG1 150219Z 03009KT 23/18 A2994 RMK A01 T02280177  RH  073%=      5-min Rain = 0
KPG1 150220Z 03009KT 23/18 A2994 RMK A01 T02280176  RH  073%=      5-min Rain = 0
KPG1 150221Z 02010KT 23/18 A2994 RMK A01 T02280176  RH  072%=      5-min Rain = 0
KPG1 150222Z 03009KT 23/18 A2994 RMK A01 T02280175  RH  072%=      5-min Rain = 0
KPG1 150223Z 02006KT 23/18 A2994 RMK A01 T02280175  RH  072%=      5-min Rain = 0
KPG1 150224Z 02005KT 23/18 A2994 RMK A01 T02280175  RH  072%=      5-min Rain = 0
KPG1 150225Z 00007KT 23/18 A2994 RMK A01 T02280175  RH  072%=      5-min Rain = 0
KPG1 150226Z 00009KT 23/18 A2994 RMK A01 T02280175  RH  072%=      5-min Rain = 0
KPG1 150227Z 00008KT 23/18 A2994 RMK A01 T02280175  RH  072%=      5-min Rain = 0
KPG1 150228Z 01009KT 23/18 A2994 RMK A01 T02280175  RH  072%=      5-min Rain = 0
KPG1 150229Z 01009KT 23/17 A2994 RMK A01 T02280174  RH  072%=      5-min Rain = 0
KPG1 150230Z 01009KT 23/17 A2994 RMK A01 T02280174  RH  072%=      5-min Rain = 0
KPG1 150231Z 02008KT 23/17 A2994 RMK A01 T02280174  RH  072%=      5-min Rain = 0
KPG1 150232Z 01007KT 23/17 A2994 RMK A01 T02280173  RH  071%=      5-min Rain = 0
KPG1 150233Z 02009KT 23/17 A2994 RMK A01 T02280173  RH  071%=      5-min Rain = 0
KPG1 150234Z 02007KT 23/17 A2994 RMK A01 T02280174  RH  071%=      5-min Rain = 0
KPG1 150235Z 02006KT 23/17 A2994 RMK A01 T02280174  RH  071%=      5-min Rain = 0
KPG1 150236Z 03007KT 23/17 A2994 RMK A01 T02280174  RH  071%=      5-min Rain = 0
KPG1 150237Z 03006KT 23/17 A2994 RMK A01 T02280174  RH  072%=      5-min Rain = 0
KPG1 150238Z 02007KT 23/17 A2994 RMK A01 T02280174  RH  072%=      5-min Rain = 0
KPG1 150239Z 02008KT 23/17 A2994 RMK A01 T02270173  RH  071%=      5-min Rain = 0
KPG1 150240Z 02008KT 23/17 A2994 RMK A01 T02280174  RH  072%=      5-min Rain = 0
KPG1 150241Z 01008KT 23/17 A2994 RMK A01 T02280174  RH  072%=      5-min Rain = 0
KPG1 150242Z 01008KT 23/17 A2994 RMK A01 T02280174  RH  072%=      5-min Rain = 0
KPG1 150243Z 02007KT 23/17 A2994 RMK A01 T02280174  RH  072%=      5-min Rain = 0
KPG1 150244Z 02008KT 23/17 A2994 RMK A01 T02270174  RH  072%=      5-min Rain = 0
KPG1 150245Z 03007KT 23/17 A2994 RMK A01 T02270174  RH  072%=      5-min Rain = 0
KPG1 150246Z 04008KT 23/17 A2994 RMK A01 T02270174  RH  072%=      5-min Rain = 0
KPG1 150247Z 04008KT 23/17 A2994 RMK A01 T02270174  RH  072%=      5-min Rain = 0
KPG1 150248Z 04009KT 23/17 A2994 RMK A01 T02260174  RH  072%=      5-min Rain = 0
KPG1 150249Z 04008KT 23/18 A2993 RMK A01 T02260175  RH  073%=      5-min Rain = 0
KPG1 150250Z 04007KT 23/17 A2993 RMK A01 T02260174  RH  073%=      5-min Rain = 0
KPG1 150251Z 02008KT 23/17 A2993 RMK A01 T02250174  RH  073%=      5-min Rain = 0
KPG1 150252Z 03008KT 23/17 A2993 RMK A01 T02250174  RH  073%=      5-min Rain = 0
KPG1 150253Z 02009KT 23/17 A2993 RMK A01 T02250174  RH  073%=      5-min Rain = 0
KPG1 150254Z 02008KT 23/17 A2993 RMK A01 T02250174  RH  073%=      5-min Rain = 0
KPG1 150255Z 02009KT 23/17 A2994 RMK A01 T02250174  RH  073%=      5-min Rain = 0
KPG1 150256Z 01009KT 23/17 A2994 RMK A01 T02250173  RH  072%=      5-min Rain = 0
KPG1 150257Z 01011KT 23/17 A2993 RMK A01 T02250172  RH  072%=      5-min Rain = 0
KPG1 150258Z 01011KT 23/17 A2994 RMK A01 T02260172  RH  072%=      5-min Rain = 0
KPG1 150259Z 01012KT 23/17 A2994 RMK A01 T02260172  RH  072%=      5-min Rain = 0
KPG1 150300Z 01011KT 23/17 A2994 RMK A01 T02260172  RH  072%=      5-min Rain = 0
KPG1 150301Z 01012KT 23/17 A2994 RMK A01 T02260172  RH  072%=      5-min Rain = 0
KPG1 150302Z 01012KT 23/17 A2994 RMK A01 T02260171  RH  071%=      5-min Rain = 0
KPG1 150303Z 01011KT 23/17 A2994 RMK A01 T02260172  RH  071%=      5-min Rain = 0
KPG1 150304Z 00012KT 23/17 A2994 RMK A01 T02260172  RH  071%=      5-min Rain = 0
KPG1 150305Z 36012KT 23/17 A2994 RMK A01 T02250173  RH  072%=      5-min Rain = 0
KPG1 150306Z 35013KT 22/17 A2994 RMK A01 T02240173  RH  073%=      5-min Rain = 0
KPG1 150307Z 34013KT 22/17 A2993 RMK A01 T02240173  RH  073%=      5-min Rain = 0
KPG1 150308Z 34014KT 22/17 A2993 RMK A01 T02230173  RH  073%=      5-min Rain = 0
KPG1 150309Z 34014KT 22/17 A2993 RMK A01 T02230173  RH  073%=      5-min Rain = 0
KPG1 150310Z 34014KT 22/17 A2993 RMK A01 T02230173  RH  073%=      5-min Rain = 0
KPG1 150311Z 34014KT 22/17 A2993 RMK A01 T02230172  RH  073%=      5-min Rain = 0
KPG1 150312Z 35014KT 22/17 A2993 RMK A01 T02230172  RH  073%=      5-min Rain = 0
KPG1 150313Z 34015KT 22/17 A2993 RMK A01 T02230172  RH  073%=      5-min Rain = 0
KPG1 150314Z 34016KT 22/17 A2993 RMK A01 T02230172  RH  073%=      5-min Rain = 0
KPG1 150315Z 34015KT 22/17 A2993 RMK A01 T02220172  RH  073%=      5-min Rain = 0
KPG1 150316Z 34013KT 22/17 A2993 RMK A01 T02230172  RH  073%=      5-min Rain = 0
KPG1 150317Z 34014KT 22/17 A2993 RMK A01 T02220171  RH  073%=      5-min Rain = 0
KPG1 150318Z 35013KT 22/17 A2993 RMK A01 T02230172  RH  073%=      5-min Rain = 0
KPG1 150319Z 34013KT 22/17 A2993 RMK A01 T02230171  RH  073%=      5-min Rain = 0
KPG1 150320Z 35014KT 22/17 A2993 RMK A01 T02230171  RH  072%=      5-min Rain = 0
KPG1 150321Z 35013KT 22/17 A2994 RMK A01 T02230171  RH  072%=      5-min Rain = 0
KPG1 150322Z 35014KT 22/17 A2993 RMK A01 T02240171  RH  072%=      5-min Rain = 0
KPG1 150323Z 35016KT 22/17 A2993 RMK A01 T02240170  RH  071%=      5-min Rain = 0
KPG1 150324Z 35014KT 23/17 A2993 RMK A01 T02250170  RH  071%=      5-min Rain = 0
KPG1 150325Z 35014KT 23/17 A2993 RMK A01 T02250169  RH  071%=      5-min Rain = 0
KPG1 150326Z 35013KT 23/17 A2993 RMK A01 T02250169  RH  071%=      5-min Rain = 0
KPG1 150327Z 35013KT 23/17 A2993 RMK A01 T02250169  RH  070%=      5-min Rain = 0
KPG1 150328Z 35013KT 23/17 A2993 RMK A01 T02250169  RH  070%=      5-min Rain = 0
KPG1 150329Z 35013KT 23/17 A2993 RMK A01 T02250168  RH  070%=      5-min Rain = 0
KPG1 150330Z 35013KT 23/17 A2993 RMK A01 T02260168  RH  070%=      5-min Rain = 0
KPG1 150331Z 34013KT 23/17 A2993 RMK A01 T02260167  RH  070%=      5-min Rain = 0
KPG1 150332Z 35013KT 23/17 A2993 RMK A01 T02260168  RH  070%=      5-min Rain = 0
KPG1 150333Z 35013KT 23/17 A2993 RMK A01 T02260166  RH  069%=      5-min Rain = 0
KPG1 150334Z 33013KT 23/16 A2993 RMK A01 T02270155  RH  064%=      5-min Rain = 0
KPG1 150335Z 33012KT 23/15 A2994 RMK A01 T02330154  RH  061%=      5-min Rain = 0
KPG1 150336Z 34011KT 23/16 A2994 RMK A01 T02340163  RH  064%=      5-min Rain = 0
KPG1 150337Z 34011KT 23/16 A2994 RMK A01 T02320163  RH  065%=      5-min Rain = 0
KPG1 150338Z 34010KT 23/16 A2994 RMK A01 T02310164  RH  066%=      5-min Rain = 0
KPG1 150339Z 34010KT 23/16 A2994 RMK A01 T02290164  RH  067%=      5-min Rain = 0
KPG1 150340Z 34010KT 23/16 A2994 RMK A01 T02280157  RH  064%=      5-min Rain = 0
KPG1 150341Z 35010KT 23/15 A2994 RMK A01 T02300154  RH  062%=      5-min Rain = 0
KPG1 150342Z 33007KT 23/15 A2994 RMK A01 T02330153  RH  061%=      5-min Rain = 0
KPG1 150343Z 01006KT 24/15 A2994 RMK A01 T02350149  RH  058%=      5-min Rain = 0
KPG1 150344Z 36011KT 24/15 A2994 RMK A01 T02360152  RH  060%=      5-min Rain = 0
KPG1 150345Z 35012KT 24/16 A2994 RMK A01 T02350158  RH  062%=      5-min Rain = 0
KPG1 150346Z 00013KT 23/16 A2994 RMK A01 T02320158  RH  063%=      5-min Rain = 0
KPG1 150347Z 35011KT 23/15 A2994 RMK A01 T02310153  RH  061%=      5-min Rain = 0
KPG1 150348Z 35012KT 23/16 A2994 RMK A01 T02330158  RH  063%=      5-min Rain = 0
KPG1 150349Z 01012KT 23/16 A2994 RMK A01 T02320160  RH  064%=      5-min Rain = 0
KPG1 150350Z 00010KT 23/16 A2994 RMK A01 T02310156  RH  063%=      5-min Rain = 0
KPG1 150351Z 00011KT 23/16 A2994 RMK A01 T02310159  RH  064%=      5-min Rain = 0
KPG1 150352Z 01009KT 23/16 A2995 RMK A01 T02300158  RH  064%=      5-min Rain = 0
KPG1 150353Z 00010KT 23/16 A2995 RMK A01 T02300158  RH  063%=      5-min Rain = 0
KPG1 150354Z 01009KT 23/16 A2995 RMK A01 T02300159  RH  064%=      5-min Rain = 0
KPG1 150355Z 02008KT 23/16 A2995 RMK A01 T02300159  RH  064%=      5-min Rain = 0
KPG1 150356Z 02007KT 23/16 A2995 RMK A01 T02300160  RH  065%=      5-min Rain = 0
KPG1 150357Z 02007KT 23/16 A2994 RMK A01 T02290160  RH  065%=      5-min Rain = 0
KPG1 150358Z 02007KT 23/16 A2994 RMK A01 T02290161  RH  066%=      5-min Rain = 0
KPG1 150359Z 03008KT 23/16 A2994 RMK A01 T02280162  RH  066%=      5-min Rain = 0
KPG1 150400Z 03009KT 23/16 A2995 RMK A01 T02280164  RH  067%=      5-min Rain = 0
KPG1 150401Z 03008KT 23/17 A2995 RMK A01 T02270165  RH  068%=      5-min Rain = 0
KPG1 150402Z 04008KT 23/17 A2995 RMK A01 T02260165  RH  068%=      5-min Rain = 0
KPG1 150403Z 04008KT 23/17 A2994 RMK A01 T02260166  RH  069%=      5-min Rain = 0
KPG1 150404Z 05008KT 23/17 A2994 RMK A01 T02250166  RH  069%=      5-min Rain = 0
KPG1 150405Z 03008KT 23/17 A2995 RMK A01 T02250165  RH  069%=      5-min Rain = 0
KPG1 150406Z 01008KT 23/16 A2995 RMK A01 T02250163  RH  068%=      5-min Rain = 0
KPG1 150407Z 36004G9KT 23/16 A2995 RMK A01 T02260160  RH  066%=      5-min Rain = 0
KPG1 150408Z 01006KT 23/16 A2995 RMK A01 T02270163  RH  067%=      5-min Rain = 0
KPG1 150409Z 36006KT 23/17 A2995 RMK A01 T02270166  RH  068%=      5-min Rain = 0
KPG1 150410Z 00008KT 23/17 A2995 RMK A01 T02260166  RH  069%=      5-min Rain = 0
KPG1 150411Z 01008KT 23/17 A2995 RMK A01 T02260167  RH  069%=      5-min Rain = 0
KPG1 150412Z 01011KT 23/17 A2995 RMK A01 T02260168  RH  070%=      5-min Rain = 0
KPG1 150413Z 03009KT 23/17 A2995 RMK A01 T02250169  RH  070%=      5-min Rain = 0
KPG1 150414Z 03010KT 23/17 A2995 RMK A01 T02250169  RH  071%=      5-min Rain = 0
KPG1 150415Z 03009KT 23/17 A2995 RMK A01 T02250169  RH  071%=      5-min Rain = 0
KPG1 150416Z 03008KT 22/17 A2995 RMK A01 T02240170  RH  071%=      5-min Rain = 0
KPG1 150417Z 01007KT 22/17 A2995 RMK A01 T02240170  RH  071%=      5-min Rain = 0
KPG1 150418Z 35009KT 22/17 A2995 RMK A01 T02240170  RH  071%=      5-min Rain = 0
KPG1 150419Z 35011KT 22/17 A2995 RMK A01 T02240166  RH  069%=      5-min Rain = 0
KPG1 150420Z 35012KT 23/17 A2995 RMK A01 T02260169  RH  070%=      5-min Rain = 0
KPG1 150421Z 35012KT 23/17 A2995 RMK A01 T02260170  RH  071%=      5-min Rain = 0
KPG1 150422Z 36011KT 23/17 A2995 RMK A01 T02260170  RH  071%=      5-min Rain = 0
KPG1 150423Z 36011KT 23/17 A2996 RMK A01 T02260171  RH  071%=      5-min Rain = 0
KPG1 150424Z 36011KT 23/17 A2996 RMK A01 T02250171  RH  071%=      5-min Rain = 0
KPG1 150425Z 01009KT 23/17 A2996 RMK A01 T02250171  RH  071%=      5-min Rain = 0
KPG1 150426Z 01010KT 23/17 A2996 RMK A01 T02250171  RH  071%=      5-min Rain = 0
KPG1 150427Z 01011KT 23/17 A2996 RMK A01 T02250171  RH  071%=      5-min Rain = 0
KPG1 150428Z 01009KT 23/17 A2996 RMK A01 T02250171  RH  071%=      5-min Rain = 0
KPG1 150429Z 01009KT 23/17 A2996 RMK A01 T02250170  RH  071%=      5-min Rain = 0
KPG1 150430Z 01010KT 23/17 A2996 RMK A01 T02250170  RH  071%=      5-min Rain = 0
KPG1 150431Z 35011KT 23/17 A2996 RMK A01 T02250170  RH  071%=      5-min Rain = 0
KPG1 150432Z 35013KT 23/17 A2996 RMK A01 T02250170  RH  071%=      5-min Rain = 0
KPG1 150433Z 35013KT 23/17 A2996 RMK A01 T02250170  RH  071%=      5-min Rain = 0
KPG1 150434Z 35012KT 23/17 A2996 RMK A01 T02250170  RH  071%=      5-min Rain = 0
KPG1 150435Z 35013KT 23/17 A2996 RMK A01 T02250170  RH  071%=      5-min Rain = 0
KPG1 150436Z 00012KT 23/17 A2996 RMK A01 T02260170  RH  071%=      5-min Rain = 0
KPG1 150437Z 36011KT 23/17 A2996 RMK A01 T02260170  RH  071%=      5-min Rain = 0
KPG1 150438Z 00011KT 23/17 A2996 RMK A01 T02260170  RH  071%=      5-min Rain = 0
KPG1 150439Z 00010KT 23/17 A2996 RMK A01 T02250170  RH  071%=      5-min Rain = 0
KPG1 150440Z 01010KT 23/17 A2996 RMK A01 T02260170  RH  071%=      5-min Rain = 0
KPG1 150441Z 01009KT 23/17 A2996 RMK A01 T02260170  RH  071%=      5-min Rain = 0
KPG1 150442Z 01008KT 23/17 A2996 RMK A01 T02260170  RH  071%=      5-min Rain = 0
KPG1 150443Z 01009KT 23/17 A2996 RMK A01 T02250169  RH  071%=      5-min Rain = 0
KPG1 150444Z 01008KT 23/17 A2996 RMK A01 T02250170  RH  071%=      5-min Rain = 0
KPG1 150445Z 01009KT 23/17 A2996 RMK A01 T02250169  RH  071%=      5-min Rain = 0
KPG1 150446Z 01009KT 23/17 A2996 RMK A01 T02250169  RH  070%=      5-min Rain = 0
KPG1 150447Z 01007KT 23/17 A2996 RMK A01 T02250168  RH  070%=      5-min Rain = 0
KPG1 150448Z 00010KT 23/17 A2996 RMK A01 T02260169  RH  070%=      5-min Rain = 0
KPG1 150449Z 00009KT 23/17 A2996 RMK A01 T02250168  RH  070%=      5-min Rain = 0
KPG1 150450Z 36011KT 23/17 A2996 RMK A01 T02250168  RH  070%=      5-min Rain = 0
KPG1 150451Z 36010KT 23/17 A2996 RMK A01 T02250168  RH  070%=      5-min Rain = 0
KPG1 150452Z 36009KT 23/17 A2996 RMK A01 T02250168  RH  070%=      5-min Rain = 0
KPG1 150453Z 00009KT 23/17 A2996 RMK A01 T02250168  RH  070%=      5-min Rain = 0
KPG1 150454Z 01007KT 23/17 A2996 RMK A01 T02260167  RH  069%=      5-min Rain = 0
KPG1 150455Z 01008KT 23/17 A2996 RMK A01 T02260167  RH  069%=      5-min Rain = 0
KPG1 150456Z 01008KT 23/17 A2996 RMK A01 T02260167  RH  069%=      5-min Rain = 0
KPG1 150457Z 01007KT 23/17 A2996 RMK A01 T02270166  RH  068%=      5-min Rain = 0
KPG1 150458Z 02007KT 23/17 A2996 RMK A01 T02280166  RH  068%=      5-min Rain = 0
KPG1 150459Z 02006KT 23/17 A2996 RMK A01 T02280165  RH  068%=      5-min Rain = 0

Page generated in 0.1752 seconds.